Dirección General De Aeronáutica Civil

Dirección Meteorológica de Chile - Servicios Climáticos

Informe General de Control de Calidad de la Estación

Listado de niveles de control de calidad para algunos parámetros
Estación Yerbas Buenas Liceo Agrícola (FDF) (350012)
Fecha de Revisión de los datos :

Elementos

Registros Niveles de Control Total
Nivel 0 Nivel 1 Nivel 2 Nivel 3 Errores Porcentaje
01 Temperatura del Aire Seco 107.915 0 . 627 0.58 % 0 . 0 . 627 0.58 %
02 Temperatura de Rocío 102.472 0 . 0 . 0 . 0 . 0 0.00 %
03 Humedad Relativa del Aire 102.519 0 . 0 . 0 . 0 . 0 0.00 %
04 Temperatura Máxima PM 9.682 0 . 0 . 44 0.45 % 0 . 44 0.45 %
05 Temperatura Mínima AM 9.627 0 . 0 . 21 0.22 % 0 . 21 0.22 %
06 Viento a 10 m. de Altura 1.369 0 . 21 1.53 % 0 . 0 . 21 1.53 %
07 Agua Caida, Acumulada 6 Horas 18.088 0 . 0 . 0 . 0 . 0 0.00 %
08 Presión Atm. a Nivel de Estación (QFE) 101.600 0 . 0 . 0 . 0 . 0 0.00 %
09 Presión Atm. a Nivel Medio del Mar (QFF) 28.209 0 . 0 . 0 . 0 . 0 0.00 %
10 Presión Atm. Estándar OACI (QNH) 28.209 0 . 0 . 0 . 0 . 0 0.00 %

Totales

509.690 . 0.0000 % . 0.1271 % . 0.0128 % . 0.0000 % 713 0.1399 %

Detalle de Errores Recientes

Fecha del Dato Descripción Información Error Fecha Ingreso
2002-06-29 00:00:00 No se informa dirección del Viento (dd), pero si una fuerza y el viento no es variable 2023-12-30 22:09:00
2002-08-17 12:00:00 No se informa dirección del Viento (dd), pero si una fuerza y el viento no es variable 2023-12-30 22:10:00
2002-08-18 12:00:00 No se informa dirección del Viento (dd), pero si una fuerza y el viento no es variable 2023-12-30 22:10:00
2003-02-16 12:00:00 No se informa intensidad del Viento (ff) , pero si una dirección 2023-12-30 22:10:00
2003-04-01 18:00:00 Viento calma fue mal ingresado. dd = 0 - ff = 1 2023-12-30 22:10:00
2003-04-08 18:00:00 Viento calma fue mal ingresado. dd = 0 - ff = 1 2023-12-30 22:10:00
2003-04-12 12:00:00 Viento calma fue mal ingresado. dd = 0 - ff = 1 2023-12-30 22:10:00
2003-04-12 18:00:00 Viento calma fue mal ingresado. dd = 0 - ff = 1 2023-12-30 22:10:00
2003-04-13 00:00:00 Viento calma fue mal ingresado. dd = 0 - ff = 1 2023-12-30 22:10:00
2003-04-13 12:00:00 Viento calma fue mal ingresado. dd = 0 - ff = 1 2023-12-30 22:10:00
2003-04-14 00:00:00 Viento calma fue mal ingresado. dd = 0 - ff = 1 2023-12-30 22:10:00
2003-04-16 18:00:00 Viento calma fue mal ingresado. dd = 0 - ff = 1 2023-12-30 22:10:00
2003-04-19 12:00:00 Viento calma fue mal ingresado. dd = 0 - ff = 1 2023-12-30 22:10:00
2003-04-20 18:00:00 Viento calma fue mal ingresado. dd = 0 - ff = 1 2023-12-30 22:10:00
2003-04-21 00:00:00 Viento calma fue mal ingresado. dd = 0 - ff = 1 2023-12-30 22:10:00
2003-04-21 18:00:00 Viento calma fue mal ingresado. dd = 0 - ff = 1 2023-12-30 22:10:00
2003-04-22 18:00:00 Viento calma fue mal ingresado. dd = 0 - ff = 1 2023-12-30 22:10:00
2003-04-23 18:00:00 Viento calma fue mal ingresado. dd = 0 - ff = 1 2023-12-30 22:10:00
2003-04-24 12:00:00 Viento calma fue mal ingresado. dd = 0 - ff = 1 2023-12-30 22:10:00
2003-04-29 18:00:00 Viento calma fue mal ingresado. dd = 0 - ff = 2 2023-12-30 22:11:00
2003-04-30 12:00:00 Viento calma fue mal ingresado. dd = 0 - ff = 3 2023-12-30 22:11:00
2002-06-30 00:00:00 Temperatura 10.9 del 29-06-2002 18:00, Mayor que la Máxima 10.8 30-06-2002 00:00 10.9 -- 10.8 2023-12-30 22:09:00
2002-07-27 00:00:00 Temperatura 12.4 del 26-07-2002 18:00, Mayor que la Máxima 12.0 27-07-2002 00:00 12.4 -- 12.0 2023-12-30 22:09:00
2002-08-06 00:00:00 Temperatura 10.8 del 06-08-2002 00:00, Mayor que la Máxima 9.6 06-08-2002 00:00 10.8 -- 9.6 2023-12-30 22:10:00
2002-09-14 00:00:00 Temperatura 17.4 del 13-09-2002 18:00, Mayor que la Máxima 14.4 14-09-2002 00:00 17.4 -- 14.4 2023-12-30 22:10:00
2002-09-18 00:00:00 Temperatura 15.0 del 17-09-2002 18:00, Mayor que la Máxima 14.3 18-09-2002 00:00 15.0 -- 14.3 2023-12-30 22:10:00
2002-09-21 00:00:00 Temperatura 16.0 del 20-09-2002 18:00, Mayor que la Máxima 15.0 21-09-2002 00:00 16.0 -- 15.0 2023-12-30 22:10:00
2002-11-17 00:00:00 Temperatura 22.6 del 16-11-2002 18:00, Mayor que la Máxima 17.0 17-11-2002 00:00 22.6 -- 17.0 2023-12-30 22:10:00
2002-12-10 00:00:00 Temperatura 24.2 del 10-12-2002 00:00, Mayor que la Máxima 23.6 10-12-2002 00:00 24.2 -- 23.6 2023-12-30 22:10:00
2003-03-24 00:00:00 Temperatura 24.8 del 23-03-2003 18:00, Mayor que la Máxima 23.8 24-03-2003 00:00 24.8 -- 23.8 2023-12-30 22:10:00
2003-03-30 00:00:00 Temperatura 22.0 del 29-03-2003 18:00, Mayor que la Máxima 18.5 30-03-2003 00:00 22.0 -- 18.5 2023-12-30 22:10:00
2003-03-31 00:00:00 Temperatura 21.2 del 30-03-2003 18:00, Mayor que la Máxima 17.0 31-03-2003 00:00 21.2 -- 17.0 2023-12-30 22:10:00
2003-05-11 00:00:00 Temperatura 16.8 del 10-05-2003 18:00, Mayor que la Máxima 16.2 11-05-2003 00:00 16.8 -- 16.2 2023-12-30 02:28:00
2003-05-18 00:00:00 Temperatura 14.4 del 17-05-2003 18:00, Mayor que la Máxima 11.0 18-05-2003 00:00 14.4 -- 11.0 2023-12-30 02:29:00
2003-05-19 00:00:00 Temperatura 12.2 del 18-05-2003 18:00, Mayor que la Máxima 11.2 19-05-2003 00:00 12.2 -- 11.2 2023-12-30 02:29:00
2003-06-21 00:00:00 Temperatura 16.4 del 20-06-2003 18:00, Mayor que la Máxima 16.2 21-06-2003 00:00 16.4 -- 16.2 2023-12-30 02:29:00
2003-09-25 00:00:00 Temperatura 12.4 del 24-09-2003 18:00, Mayor que la Máxima 10.2 25-09-2003 00:00 12.4 -- 10.2 2023-12-30 02:29:00
2003-11-18 00:00:00 Temperatura 16.4 del 18-11-2003 00:00, Mayor que la Máxima 16.0 18-11-2003 00:00 16.4 -- 16.0 2023-12-30 02:29:00
2003-12-01 00:00:00 Temperatura 29.0 del 01-12-2003 00:00, Mayor que la Máxima 27.0 01-12-2003 00:00 29.0 -- 27.0 2023-12-30 02:29:00
2003-12-17 00:00:00 Temperatura 29.8 del 16-12-2003 18:00, Mayor que la Máxima 28.0 17-12-2003 00:00 29.8 -- 28.0 2023-12-30 02:29:00
2004-01-13 00:00:00 Temperatura 28.2 del 12-01-2004 18:00, Mayor que la Máxima 28.0 13-01-2004 00:00 28.2 -- 28.0 2023-12-30 02:29:00
2004-02-16 00:00:00 Temperatura 27.0 del 15-02-2004 18:00, Mayor que la Máxima 26.0 16-02-2004 00:00 27.0 -- 26.0 2023-12-30 02:29:00
2004-03-05 00:00:00 Temperatura 27.0 del 04-03-2004 18:00, Mayor que la Máxima 20.0 05-03-2004 00:00 27.0 -- 20.0 2023-12-30 02:29:00
2004-03-29 00:00:00 Temperatura 17.0 del 29-03-2004 00:00, Mayor que la Máxima 11.0 29-03-2004 00:00 17.0 -- 11.0 2023-12-30 02:29:00
2004-03-30 00:00:00 Temperatura 23.4 del 29-03-2004 18:00, Mayor que la Máxima 23.0 30-03-2004 00:00 23.4 -- 23.0 2023-12-30 02:29:00
2004-03-31 00:00:00 Temperatura 25.2 del 30-03-2004 18:00, Mayor que la Máxima 25.0 31-03-2004 00:00 25.2 -- 25.0 2023-12-30 02:29:00
2004-04-06 00:00:00 Temperatura 20.6 del 05-04-2004 18:00, Mayor que la Máxima 20.0 06-04-2004 00:00 20.6 -- 20.0 2023-12-30 02:29:00
2004-04-08 00:00:00 Temperatura 23.4 del 07-04-2004 18:00, Mayor que la Máxima 23.0 08-04-2004 00:00 23.4 -- 23.0 2023-12-30 02:29:00
2004-04-10 00:00:00 Temperatura 19.4 del 09-04-2004 18:00, Mayor que la Máxima 19.0 10-04-2004 00:00 19.4 -- 19.0 2023-12-30 02:29:00
2004-04-12 00:00:00 Temperatura 23.8 del 11-04-2004 18:00, Mayor que la Máxima 23.0 12-04-2004 00:00 23.8 -- 23.0 2023-12-30 02:29:00
2004-05-17 00:00:00 Temperatura 16.8 del 17-05-2004 00:00, Mayor que la Máxima 15.6 17-05-2004 00:00 16.8 -- 15.6 2023-12-31 02:46:00
2004-06-14 00:00:00 Temperatura 7.8 del 14-06-2004 00:00, Mayor que la Máxima 7.0 14-06-2004 00:00 7.8 -- 7.0 2023-12-31 02:46:00
2004-06-25 00:00:00 Temperatura 10.4 del 24-06-2004 18:00, Mayor que la Máxima 10.0 25-06-2004 00:00 10.4 -- 10.0 2023-12-31 02:46:00
2004-10-22 00:00:00 Temperatura 17.1 del 21-10-2004 18:00, Mayor que la Máxima 10.4 22-10-2004 00:00 17.1 -- 10.4 2023-12-31 02:46:00
2004-11-11 00:00:00 Temperatura 22.8 del 11-11-2004 00:00, Mayor que la Máxima 18.0 11-11-2004 00:00 22.8 -- 18.0 2023-12-31 02:46:00
2004-11-14 00:00:00 Temperatura 18.8 del 13-11-2004 18:00, Mayor que la Máxima 15.0 14-11-2004 00:00 18.8 -- 15.0 2023-12-31 02:46:00
2004-11-15 00:00:00 Temperatura 18.2 del 14-11-2004 18:00, Mayor que la Máxima 14.0 15-11-2004 00:00 18.2 -- 14.0 2023-12-31 02:46:00
2004-12-19 00:00:00 Temperatura 24.4 del 18-12-2004 18:00, Mayor que la Máxima 24.0 19-12-2004 00:00 24.4 -- 24.0 2023-12-31 02:46:00
2005-03-17 00:00:00 Temperatura 23.6 del 16-03-2005 18:00, Mayor que la Máxima 19.0 17-03-2005 00:00 23.6 -- 19.0 2023-12-31 02:46:00
2009-01-07 00:00:00 Temperatura 28.0 del 07-01-2009 00:00, Mayor que la Máxima 26.4 07-01-2009 00:00 28.0 -- 26.4 2023-12-31 01:09:00
2009-02-21 00:00:00 Temperatura 25.4 del 21-02-2009 00:00, Mayor que la Máxima 25.0 21-02-2009 00:00 25.4 -- 25.0 2023-12-31 01:09:00
2009-02-27 00:00:00 Temperatura 30.1 del 26-02-2009 22:00, Mayor que la Máxima 29.8 27-02-2009 00:00 30.1 -- 29.8 2023-12-31 01:09:00
2009-03-01 00:00:00 Temperatura 26.0 del 28-02-2009 21:00, Mayor que la Máxima 25.6 01-03-2009 00:00 26.0 -- 25.6 2023-12-31 01:09:00
2002-05-08 12:00:00 Temperatura 8.4 del 08-05-2002 12:00, Menor que la Mínima 8.8 08-05-2002 12:00 8.4 -- 8.8 2023-12-30 22:09:00
2002-06-10 12:00:00 Temperatura -3.5 del 10-06-2002 12:00, Menor que la Mínima -3.0 10-06-2002 12:00 -3.5 -- -3.0 2023-12-30 22:09:00
2002-07-01 12:00:00 Temperatura -0.6 del 01-07-2002 12:00, Menor que la Mínima 1.0 01-07-2002 12:00 -0.6 -- 1.0 2023-12-30 22:09:00
2002-07-10 12:00:00 Temperatura 2.0 del 10-07-2002 12:00, Menor que la Mínima 3.0 10-07-2002 12:00 2.0 -- 3.0 2023-12-30 22:09:00
2002-08-08 12:00:00 Temperatura 7.8 del 08-08-2002 12:00, Menor que la Mínima 8.0 08-08-2002 12:00 7.8 -- 8.0 2023-12-30 22:10:00
2002-09-26 12:00:00 Temperatura 5.2 del 26-09-2002 12:00, Menor que la Mínima 9.0 26-09-2002 12:00 5.2 -- 9.0 2023-12-30 22:10:00
2003-02-07 12:00:00 Temperatura 11.4 del 07-02-2003 12:00, Menor que la Mínima 11.6 07-02-2003 12:00 11.4 -- 11.6 2023-12-30 22:10:00
2003-04-28 12:00:00 Temperatura 0.4 del 28-04-2003 12:00, Menor que la Mínima 1.0 28-04-2003 12:00 0.4 -- 1.0 2023-12-30 22:11:00
2003-05-07 12:00:00 Temperatura 4.2 del 07-05-2003 12:00, Menor que la Mínima 4.5 07-05-2003 12:00 4.2 -- 4.5 2023-12-30 02:28:00
2003-07-29 12:00:00 Temperatura 1.4 del 29-07-2003 12:00, Menor que la Mínima 2.2 29-07-2003 12:00 1.4 -- 2.2 2023-12-30 02:29:00
2003-07-30 12:00:00 Temperatura 0.0 del 30-07-2003 12:00, Menor que la Mínima 3.0 30-07-2003 12:00 0.0 -- 3.0 2023-12-30 02:29:00
2003-08-12 12:00:00 Temperatura 7.4 del 12-08-2003 12:00, Menor que la Mínima 8.0 12-08-2003 12:00 7.4 -- 8.0 2023-12-30 02:29:00
2003-08-21 12:00:00 Temperatura 1.4 del 21-08-2003 12:00, Menor que la Mínima 2.0 21-08-2003 12:00 1.4 -- 2.0 2023-12-30 02:29:00
2003-09-11 12:00:00 Temperatura 7.2 del 11-09-2003 12:00, Menor que la Mínima 8.0 11-09-2003 12:00 7.2 -- 8.0 2023-12-30 02:29:00
2003-11-12 12:00:00 Temperatura 11.4 del 12-11-2003 12:00, Menor que la Mínima 14.0 12-11-2003 12:00 11.4 -- 14.0 2023-12-30 02:29:00
2004-05-04 12:00:00 Temperatura 2.8 del 04-05-2004 12:00, Menor que la Mínima 3.0 04-05-2004 12:00 2.8 -- 3.0 2023-12-31 02:46:00
2004-08-04 12:00:00 Temperatura 7.2 del 04-08-2004 12:00, Menor que la Mínima 7.4 04-08-2004 12:00 7.2 -- 7.4 2023-12-31 02:46:00
2004-08-09 12:00:00 Temperatura 8.6 del 09-08-2004 12:00, Menor que la Mínima 9.2 09-08-2004 12:00 8.6 -- 9.2 2023-12-31 02:46:00
2004-08-13 12:00:00 Temperatura 3.6 del 13-08-2004 12:00, Menor que la Mínima 3.8 13-08-2004 12:00 3.6 -- 3.8 2023-12-31 02:46:00
2009-01-24 12:00:00 Temperatura 11.2 del 24-01-2009 12:00, Menor que la Mínima 12.4 24-01-2009 12:00 11.2 -- 12.4 2023-12-31 01:09:00
2009-01-25 12:00:00 Temperatura 7.2 del 25-01-2009 12:00, Menor que la Mínima 8.4 25-01-2009 12:00 7.2 -- 8.4 2023-12-31 01:09:00
Total de Errores Recientes 84

Detalle de Errores Encontrados

Nivel Fecha del Dato Descripción Información Error Fecha Ingreso
1 2002-06-29 00:00:00 No se informa dirección del Viento (dd), pero si una fuerza y el viento no es variable 2023-12-30 22:09:00
1 2002-08-17 12:00:00 No se informa dirección del Viento (dd), pero si una fuerza y el viento no es variable 2023-12-30 22:10:00
1 2002-08-18 12:00:00 No se informa dirección del Viento (dd), pero si una fuerza y el viento no es variable 2023-12-30 22:10:00
1 2003-02-16 12:00:00 No se informa intensidad del Viento (ff) , pero si una dirección 2023-12-30 22:10:00
1 2003-04-01 18:00:00 Viento calma fue mal ingresado. dd = 0 - ff = 1 2023-12-30 22:10:00
1 2003-04-08 18:00:00 Viento calma fue mal ingresado. dd = 0 - ff = 1 2023-12-30 22:10:00
1 2003-04-12 12:00:00 Viento calma fue mal ingresado. dd = 0 - ff = 1 2023-12-30 22:10:00
1 2003-04-12 18:00:00 Viento calma fue mal ingresado. dd = 0 - ff = 1 2023-12-30 22:10:00
1 2003-04-13 00:00:00 Viento calma fue mal ingresado. dd = 0 - ff = 1 2023-12-30 22:10:00
1 2003-04-13 12:00:00 Viento calma fue mal ingresado. dd = 0 - ff = 1 2023-12-30 22:10:00
1 2003-04-14 00:00:00 Viento calma fue mal ingresado. dd = 0 - ff = 1 2023-12-30 22:10:00
1 2003-04-16 18:00:00 Viento calma fue mal ingresado. dd = 0 - ff = 1 2023-12-30 22:10:00
1 2003-04-19 12:00:00 Viento calma fue mal ingresado. dd = 0 - ff = 1 2023-12-30 22:10:00
1 2003-04-20 18:00:00 Viento calma fue mal ingresado. dd = 0 - ff = 1 2023-12-30 22:10:00
1 2003-04-21 00:00:00 Viento calma fue mal ingresado. dd = 0 - ff = 1 2023-12-30 22:10:00
1 2003-04-21 18:00:00 Viento calma fue mal ingresado. dd = 0 - ff = 1 2023-12-30 22:10:00
1 2003-04-22 18:00:00 Viento calma fue mal ingresado. dd = 0 - ff = 1 2023-12-30 22:10:00
1 2003-04-23 18:00:00 Viento calma fue mal ingresado. dd = 0 - ff = 1 2023-12-30 22:10:00
1 2003-04-24 12:00:00 Viento calma fue mal ingresado. dd = 0 - ff = 1 2023-12-30 22:10:00
1 2003-04-29 18:00:00 Viento calma fue mal ingresado. dd = 0 - ff = 2 2023-12-30 22:11:00
1 2003-04-30 12:00:00 Viento calma fue mal ingresado. dd = 0 - ff = 3 2023-12-30 22:11:00
1 2015-06-23 15:00:00 Ts debe ser mayor o igual a Td Ts=7.2 - Td=7.3 2023-10-28 10:22:00
1 2015-06-24 05:00:00 Ts debe ser mayor o igual a Td Ts=4.8 - Td=4.9 2023-10-28 10:22:00
1 2015-06-27 05:00:00 Ts debe ser mayor o igual a Td Ts=8.9 - Td=9.0 2023-10-28 10:22:00
1 2015-06-30 09:00:00 Ts debe ser mayor o igual a Td Ts=5.6 - Td=5.7 2023-10-28 10:22:00
1 2015-07-06 15:00:00 Ts debe ser mayor o igual a Td Ts=8.9 - Td=9.0 2023-10-28 10:22:00
1 2015-07-09 11:00:00 Ts debe ser mayor o igual a Td Ts=10.3 - Td=10.4 2023-10-28 10:22:00
1 2015-07-09 22:00:00 Ts debe ser mayor o igual a Td Ts=8.2 - Td=8.3 2023-10-28 10:22:00
1 2015-07-10 04:00:00 Ts debe ser mayor o igual a Td Ts=7.8 - Td=7.9 2023-10-28 10:22:00
1 2015-07-10 08:00:00 Ts debe ser mayor o igual a Td Ts=7.8 - Td=7.9 2023-10-28 10:22:00
1 2015-07-10 12:00:00 Ts debe ser mayor o igual a Td Ts=7.7 - Td=7.8 2023-10-28 10:22:00
1 2015-07-10 13:00:00 Ts debe ser mayor o igual a Td Ts=8.6 - Td=8.7 2023-10-28 10:22:00
1 2015-07-11 03:00:00 Ts debe ser mayor o igual a Td Ts=8.7 - Td=8.8 2023-10-28 10:22:00
1 2015-07-11 06:00:00 Ts debe ser mayor o igual a Td Ts=8.5 - Td=8.6 2023-10-28 10:22:00
1 2015-07-11 07:00:00 Ts debe ser mayor o igual a Td Ts=8.5 - Td=8.6 2023-10-28 10:22:00
1 2015-07-12 05:00:00 Ts debe ser mayor o igual a Td Ts=10.8 - Td=10.9 2023-10-28 10:22:00
1 2015-07-12 20:00:00 Ts debe ser mayor o igual a Td Ts=9.4 - Td=9.5 2023-10-28 10:22:00
1 2015-07-12 22:00:00 Ts debe ser mayor o igual a Td Ts=7.3 - Td=7.4 2023-10-28 10:22:00
1 2015-07-16 12:00:00 Ts debe ser mayor o igual a Td Ts=7.1 - Td=7.2 2023-10-28 10:22:00
1 2015-07-22 14:00:00 Ts debe ser mayor o igual a Td Ts=7.2 - Td=7.3 2023-10-28 10:22:00
1 2015-07-24 14:00:00 Ts debe ser mayor o igual a Td Ts=7.7 - Td=7.8 2023-10-28 10:22:00
1 2015-07-26 13:00:00 Ts debe ser mayor o igual a Td Ts=8.7 - Td=8.8 2023-10-28 10:22:00
1 2015-07-28 08:00:00 Ts debe ser mayor o igual a Td Ts=10.6 - Td=10.7 2023-10-28 10:22:00
1 2015-07-28 23:00:00 Ts debe ser mayor o igual a Td Ts=7.1 - Td=7.2 2023-10-28 10:22:00
1 2015-07-29 15:00:00 Ts debe ser mayor o igual a Td Ts=8.1 - Td=8.2 2023-10-28 10:22:00
1 2015-08-01 23:00:00 Ts debe ser mayor o igual a Td Ts=10.5 - Td=10.6 2023-10-28 10:22:00
1 2015-08-02 22:00:00 Ts debe ser mayor o igual a Td Ts=9.4 - Td=9.5 2023-10-28 10:22:00
1 2015-08-04 01:00:00 Ts debe ser mayor o igual a Td Ts=6.9 - Td=7.0 2023-10-28 10:22:00
1 2015-08-04 07:00:00 Ts debe ser mayor o igual a Td Ts=7.5 - Td=7.6 2023-10-28 10:22:00
1 2015-08-04 09:00:00 Ts debe ser mayor o igual a Td Ts=7.6 - Td=7.7 2023-10-28 10:22:00
1 2015-08-06 13:00:00 Ts debe ser mayor o igual a Td Ts=12.2 - Td=12.3 2023-10-28 10:22:00
1 2015-08-07 06:00:00 Ts debe ser mayor o igual a Td Ts=8.2 - Td=8.3 2023-10-28 10:22:00
1 2015-08-07 07:00:00 Ts debe ser mayor o igual a Td Ts=8.8 - Td=8.9 2023-10-28 10:22:00
1 2015-08-10 00:00:00 Ts debe ser mayor o igual a Td Ts=8.1 - Td=8.2 2023-10-28 10:22:00
1 2015-08-10 02:00:00 Ts debe ser mayor o igual a Td Ts=7.7 - Td=7.8 2023-10-28 10:22:00
1 2015-08-24 02:00:00 Ts debe ser mayor o igual a Td Ts=7.0 - Td=7.1 2023-10-28 10:23:00
1 2015-08-24 10:00:00 Ts debe ser mayor o igual a Td Ts=4.8 - Td=4.9 2023-10-28 10:23:00
1 2015-08-27 04:00:00 Ts debe ser mayor o igual a Td Ts=5.7 - Td=5.8 2023-10-28 10:23:00
1 2015-08-30 02:00:00 Ts debe ser mayor o igual a Td Ts=9.3 - Td=9.4 2023-10-28 10:23:00
1 2015-08-30 13:00:00 Ts debe ser mayor o igual a Td Ts=10.7 - Td=10.8 2023-10-28 10:23:00
1 2015-09-01 09:00:00 Ts debe ser mayor o igual a Td Ts=9.4 - Td=9.5 2023-10-28 10:23:00
1 2015-09-01 13:00:00 Ts debe ser mayor o igual a Td Ts=9.3 - Td=9.4 2023-10-28 10:23:00
1 2015-09-05 11:00:00 Ts debe ser mayor o igual a Td Ts=5.6 - Td=5.7 2023-10-28 10:23:00
1 2015-09-14 09:00:00 Ts debe ser mayor o igual a Td Ts=5.7 - Td=5.8 2023-10-28 10:23:00
1 2015-09-16 03:00:00 Ts debe ser mayor o igual a Td Ts=5.7 - Td=5.8 2023-10-28 10:23:00
1 2015-09-22 12:00:00 Ts debe ser mayor o igual a Td Ts=7.6 - Td=7.7 2023-10-28 10:23:00
1 2015-09-23 12:00:00 Ts debe ser mayor o igual a Td Ts=7.7 - Td=7.8 2023-10-28 10:23:00
1 2015-09-30 10:00:00 Ts debe ser mayor o igual a Td Ts=11.7 - Td=11.8 2023-10-28 10:23:00
1 2015-10-05 03:00:00 Ts debe ser mayor o igual a Td Ts=9.4 - Td=9.5 2023-10-28 10:23:00
1 2015-10-05 04:00:00 Ts debe ser mayor o igual a Td Ts=8.6 - Td=8.7 2023-10-28 10:23:00
1 2015-10-17 11:00:00 Ts debe ser mayor o igual a Td Ts=8.1 - Td=8.2 2023-10-28 10:23:00
1 2015-11-04 08:00:00 Ts debe ser mayor o igual a Td Ts=7.3 - Td=7.4 2023-10-28 10:24:00
1 2015-11-10 11:00:00 Ts debe ser mayor o igual a Td Ts=9.4 - Td=9.5 2023-10-28 10:24:00
1 2016-02-06 11:00:00 Ts debe ser mayor o igual a Td Ts=12.2 - Td=12.3 2023-10-28 10:25:00
1 2016-03-02 11:00:00 Ts debe ser mayor o igual a Td Ts=7.8 - Td=7.9 2023-10-28 10:26:00
1 2016-03-03 11:00:00 Ts debe ser mayor o igual a Td Ts=9.4 - Td=9.5 2023-10-28 10:26:00
1 2016-03-08 11:00:00 Ts debe ser mayor o igual a Td Ts=7.1 - Td=7.2 2023-10-28 10:26:00
1 2016-03-11 12:00:00 Ts debe ser mayor o igual a Td Ts=15.4 - Td=15.5 2023-10-28 10:26:00
1 2016-03-23 12:00:00 Ts debe ser mayor o igual a Td Ts=11.8 - Td=11.9 2023-10-28 10:26:00
1 2016-03-25 12:00:00 Ts debe ser mayor o igual a Td Ts=10.4 - Td=10.5 2023-10-28 10:26:00
1 2016-04-04 10:00:00 Ts debe ser mayor o igual a Td Ts=4.8 - Td=4.9 2023-10-28 10:26:00
1 2016-04-04 12:00:00 Ts debe ser mayor o igual a Td Ts=8.6 - Td=8.7 2023-10-28 10:26:00
1 2016-04-10 13:00:00 Ts debe ser mayor o igual a Td Ts=7.6 - Td=7.7 2023-10-28 10:26:00
1 2016-04-16 08:00:00 Ts debe ser mayor o igual a Td Ts=13.8 - Td=13.9 2023-10-28 10:26:00
1 2016-04-18 03:00:00 Ts debe ser mayor o igual a Td Ts=12.5 - Td=12.6 2023-10-28 10:26:00
1 2016-04-18 13:00:00 Ts debe ser mayor o igual a Td Ts=10.4 - Td=10.5 2023-10-28 10:26:00
1 2016-04-19 11:00:00 Ts debe ser mayor o igual a Td Ts=10.4 - Td=10.5 2023-10-28 10:26:00
1 2016-04-20 11:00:00 Ts debe ser mayor o igual a Td Ts=8.7 - Td=8.8 2023-10-28 10:26:00
1 2016-04-24 09:00:00 Ts debe ser mayor o igual a Td Ts=7.0 - Td=7.1 2023-10-28 10:27:00
1 2016-04-25 16:00:00 Ts debe ser mayor o igual a Td Ts=9.4 - Td=9.5 2023-10-28 10:27:00
1 2016-04-28 08:00:00 Ts debe ser mayor o igual a Td Ts=7.7 - Td=7.8 2023-10-28 10:27:00
1 2016-04-28 10:00:00 Ts debe ser mayor o igual a Td Ts=8.2 - Td=8.3 2023-10-28 10:27:00
1 2016-04-29 07:00:00 Ts debe ser mayor o igual a Td Ts=9.3 - Td=9.4 2023-10-28 10:27:00
1 2016-04-29 14:00:00 Ts debe ser mayor o igual a Td Ts=10.4 - Td=10.5 2023-10-28 10:27:00
1 2016-05-02 06:00:00 Ts debe ser mayor o igual a Td Ts=8.2 - Td=8.3 2023-10-28 10:27:00
1 2016-05-03 11:00:00 Ts debe ser mayor o igual a Td Ts=10.5 - Td=10.6 2023-10-28 10:27:00
1 2016-05-03 15:00:00 Ts debe ser mayor o igual a Td Ts=11.4 - Td=11.5 2023-10-28 10:27:00
1 2016-05-04 15:00:00 Ts debe ser mayor o igual a Td Ts=12.6 - Td=12.7 2023-10-28 10:27:00
1 2016-05-06 13:00:00 Ts debe ser mayor o igual a Td Ts=8.9 - Td=9.0 2023-10-28 10:27:00
1 2016-05-06 14:00:00 Ts debe ser mayor o igual a Td Ts=12.4 - Td=12.5 2023-10-28 10:27:00
1 2016-05-07 12:00:00 Ts debe ser mayor o igual a Td Ts=8.9 - Td=9.0 2023-10-28 10:27:00
1 2016-05-07 15:00:00 Ts debe ser mayor o igual a Td Ts=11.4 - Td=11.5 2023-10-28 10:27:00
1 2016-05-08 07:00:00 Ts debe ser mayor o igual a Td Ts=10.8 - Td=10.9 2023-10-28 10:27:00
1 2016-05-08 10:00:00 Ts debe ser mayor o igual a Td Ts=8.4 - Td=8.5 2023-10-28 10:27:00
1 2016-05-12 05:00:00 Ts debe ser mayor o igual a Td Ts=8.8 - Td=8.9 2023-10-28 10:27:00
1 2016-05-12 06:00:00 Ts debe ser mayor o igual a Td Ts=8.3 - Td=8.4 2023-10-28 10:27:00
1 2016-05-13 11:00:00 Ts debe ser mayor o igual a Td Ts=10.8 - Td=10.9 2023-10-28 10:27:00
1 2016-05-13 19:00:00 Ts debe ser mayor o igual a Td Ts=12.9 - Td=13.0 2023-10-28 10:27:00
1 2016-05-14 01:00:00 Ts debe ser mayor o igual a Td Ts=9.1 - Td=9.2 2023-10-28 10:27:00
1 2016-05-14 04:00:00 Ts debe ser mayor o igual a Td Ts=10.3 - Td=10.4 2023-10-28 10:27:00
1 2016-05-14 05:00:00 Ts debe ser mayor o igual a Td Ts=10.6 - Td=10.7 2023-10-28 10:27:00
1 2016-05-14 10:00:00 Ts debe ser mayor o igual a Td Ts=10.4 - Td=10.5 2023-10-28 10:27:00
1 2016-05-14 14:00:00 Ts debe ser mayor o igual a Td Ts=11.4 - Td=11.5 2023-10-28 10:27:00
1 2016-05-15 11:00:00 Ts debe ser mayor o igual a Td Ts=9.2 - Td=9.3 2023-10-28 10:27:00
1 2016-05-15 12:00:00 Ts debe ser mayor o igual a Td Ts=9.1 - Td=9.2 2023-10-28 10:27:00
1 2016-05-16 06:00:00 Ts debe ser mayor o igual a Td Ts=5.6 - Td=5.7 2023-10-28 10:27:00
1 2016-05-17 15:00:00 Ts debe ser mayor o igual a Td Ts=12.3 - Td=12.4 2023-10-28 10:27:00
1 2016-05-18 10:00:00 Ts debe ser mayor o igual a Td Ts=8.5 - Td=8.6 2023-10-28 10:27:00
1 2016-05-18 11:00:00 Ts debe ser mayor o igual a Td Ts=10.3 - Td=10.4 2023-10-28 10:27:00
1 2016-05-19 08:00:00 Ts debe ser mayor o igual a Td Ts=10.8 - Td=10.9 2023-10-28 10:27:00
1 2016-05-20 03:00:00 Ts debe ser mayor o igual a Td Ts=9.4 - Td=9.5 2023-10-28 10:27:00
1 2016-05-20 09:00:00 Ts debe ser mayor o igual a Td Ts=10.6 - Td=10.7 2023-10-28 10:27:00
1 2016-05-20 11:00:00 Ts debe ser mayor o igual a Td Ts=10.4 - Td=10.5 2023-10-28 10:27:00
1 2016-05-20 12:00:00 Ts debe ser mayor o igual a Td Ts=10.3 - Td=10.4 2023-10-28 10:27:00
1 2016-05-20 13:00:00 Ts debe ser mayor o igual a Td Ts=10.5 - Td=10.6 2023-10-28 10:27:00
1 2016-05-21 02:00:00 Ts debe ser mayor o igual a Td Ts=10.6 - Td=10.7 2023-10-28 10:27:00
1 2016-05-21 14:00:00 Ts debe ser mayor o igual a Td Ts=12.2 - Td=12.3 2023-10-28 10:27:00
1 2016-05-22 11:00:00 Ts debe ser mayor o igual a Td Ts=7.4 - Td=7.5 2023-10-28 10:27:00
1 2016-05-23 00:00:00 Ts debe ser mayor o igual a Td Ts=7.4 - Td=7.5 2023-10-28 10:27:00
1 2016-05-23 09:00:00 Ts debe ser mayor o igual a Td Ts=8.2 - Td=8.3 2023-10-28 10:27:00
1 2016-05-23 11:00:00 Ts debe ser mayor o igual a Td Ts=7.5 - Td=7.6 2023-10-28 10:27:00
1 2016-05-26 09:00:00 Ts debe ser mayor o igual a Td Ts=8.2 - Td=8.3 2023-10-28 10:27:00
1 2016-05-26 12:00:00 Ts debe ser mayor o igual a Td Ts=9.2 - Td=9.3 2023-10-28 10:27:00
1 2016-05-28 08:00:00 Ts debe ser mayor o igual a Td Ts=7.5 - Td=7.6 2023-10-28 10:27:00
1 2016-05-28 09:00:00 Ts debe ser mayor o igual a Td Ts=8.3 - Td=8.4 2023-10-28 10:27:00
1 2016-05-30 03:00:00 Ts debe ser mayor o igual a Td Ts=11.5 - Td=11.6 2023-10-28 10:27:00
1 2016-05-30 08:00:00 Ts debe ser mayor o igual a Td Ts=8.6 - Td=8.7 2023-10-28 10:27:00
1 2016-05-30 09:00:00 Ts debe ser mayor o igual a Td Ts=8.3 - Td=8.4 2023-10-28 10:27:00
1 2016-05-30 10:00:00 Ts debe ser mayor o igual a Td Ts=7.6 - Td=7.7 2023-10-28 10:27:00
1 2016-05-31 09:00:00 Ts debe ser mayor o igual a Td Ts=7.1 - Td=7.2 2023-10-28 10:27:00
1 2016-06-01 04:00:00 Ts debe ser mayor o igual a Td Ts=7.7 - Td=7.8 2023-10-28 10:27:00
1 2016-06-01 06:00:00 Ts debe ser mayor o igual a Td Ts=8.2 - Td=8.3 2023-10-28 10:27:00
1 2016-06-03 06:00:00 Ts debe ser mayor o igual a Td Ts=7.7 - Td=7.8 2023-10-28 10:27:00
1 2016-06-03 13:00:00 Ts debe ser mayor o igual a Td Ts=7.2 - Td=7.3 2023-10-28 10:27:00
1 2016-06-03 15:00:00 Ts debe ser mayor o igual a Td Ts=8.3 - Td=8.4 2023-10-28 10:27:00
1 2016-06-08 10:00:00 Ts debe ser mayor o igual a Td Ts=5.7 - Td=5.8 2023-10-28 10:27:00
1 2016-06-08 13:00:00 Ts debe ser mayor o igual a Td Ts=4.8 - Td=4.9 2023-10-28 10:27:00
1 2016-06-11 19:00:00 Ts debe ser mayor o igual a Td Ts=9.3 - Td=9.4 2023-10-28 10:27:00
1 2016-06-12 17:00:00 Ts debe ser mayor o igual a Td Ts=8.8 - Td=8.9 2023-10-28 10:27:00
1 2016-06-12 19:00:00 Ts debe ser mayor o igual a Td Ts=9.2 - Td=9.3 2023-10-28 10:27:00
1 2016-06-13 01:00:00 Ts debe ser mayor o igual a Td Ts=8.3 - Td=8.4 2023-10-28 10:27:00
1 2016-06-13 02:00:00 Ts debe ser mayor o igual a Td Ts=7.8 - Td=7.9 2023-10-28 10:27:00
1 2016-06-13 15:00:00 Ts debe ser mayor o igual a Td Ts=7.5 - Td=7.6 2023-10-28 10:27:00
1 2016-06-14 00:00:00 Ts debe ser mayor o igual a Td Ts=7.0 - Td=7.1 2023-10-28 10:27:00
1 2016-06-14 01:00:00 Ts debe ser mayor o igual a Td Ts=7.4 - Td=7.5 2023-10-28 10:27:00
1 2016-06-14 02:00:00 Ts debe ser mayor o igual a Td Ts=7.1 - Td=7.2 2023-10-28 10:27:00
1 2016-06-14 04:00:00 Ts debe ser mayor o igual a Td Ts=7.0 - Td=7.1 2023-10-28 10:27:00
1 2016-06-14 06:00:00 Ts debe ser mayor o igual a Td Ts=7.0 - Td=7.1 2023-10-28 10:27:00
1 2016-06-14 18:00:00 Ts debe ser mayor o igual a Td Ts=8.2 - Td=8.3 2023-10-28 10:27:00
1 2016-06-16 16:00:00 Ts debe ser mayor o igual a Td Ts=7.5 - Td=7.6 2023-10-28 10:27:00
1 2016-06-18 18:00:00 Ts debe ser mayor o igual a Td Ts=5.6 - Td=5.7 2023-10-28 10:27:00
1 2016-06-23 22:00:00 Ts debe ser mayor o igual a Td Ts=7.4 - Td=7.5 2023-10-28 10:28:00
1 2016-06-24 03:00:00 Ts debe ser mayor o igual a Td Ts=7.6 - Td=7.7 2023-10-28 10:28:00
1 2016-06-24 04:00:00 Ts debe ser mayor o igual a Td Ts=7.6 - Td=7.7 2023-10-28 10:28:00
1 2016-06-24 11:00:00 Ts debe ser mayor o igual a Td Ts=6.9 - Td=7.0 2023-10-28 10:28:00
1 2016-06-25 14:00:00 Ts debe ser mayor o igual a Td Ts=8.2 - Td=8.3 2023-10-28 10:28:00
1 2016-06-26 17:00:00 Ts debe ser mayor o igual a Td Ts=7.7 - Td=7.8 2023-10-28 10:28:00
1 2016-06-29 13:00:00 Ts debe ser mayor o igual a Td Ts=7.3 - Td=7.4 2023-10-28 10:28:00
1 2016-07-07 16:00:00 Ts debe ser mayor o igual a Td Ts=7.7 - Td=7.8 2023-10-28 10:28:00
1 2016-07-09 10:00:00 Ts debe ser mayor o igual a Td Ts=4.8 - Td=4.9 2023-10-28 10:28:00
1 2016-07-10 09:00:00 Ts debe ser mayor o igual a Td Ts=7.0 - Td=7.1 2023-10-28 10:28:00
1 2016-07-14 06:00:00 Ts debe ser mayor o igual a Td Ts=9.2 - Td=9.3 2023-10-28 10:28:00
1 2016-07-14 10:00:00 Ts debe ser mayor o igual a Td Ts=7.5 - Td=7.6 2023-10-28 10:28:00
1 2016-07-17 08:00:00 Ts debe ser mayor o igual a Td Ts=4.8 - Td=4.9 2023-10-28 10:28:00
1 2016-07-18 16:00:00 Ts debe ser mayor o igual a Td Ts=9.1 - Td=9.2 2023-10-28 10:28:00
1 2016-07-19 08:00:00 Ts debe ser mayor o igual a Td Ts=7.1 - Td=7.2 2023-10-28 10:28:00
1 2016-07-19 14:00:00 Ts debe ser mayor o igual a Td Ts=9.1 - Td=9.2 2023-10-28 10:28:00
1 2016-07-21 06:00:00 Ts debe ser mayor o igual a Td Ts=7.1 - Td=7.2 2023-10-28 10:28:00
1 2016-07-21 07:00:00 Ts debe ser mayor o igual a Td Ts=7.0 - Td=7.1 2023-10-28 10:28:00
1 2016-07-21 09:00:00 Ts debe ser mayor o igual a Td Ts=8.8 - Td=8.9 2023-10-28 10:28:00
1 2016-07-21 16:00:00 Ts debe ser mayor o igual a Td Ts=10.7 - Td=10.8 2023-10-28 10:28:00
1 2016-07-22 13:00:00 Ts debe ser mayor o igual a Td Ts=7.8 - Td=7.9 2023-10-28 10:28:00
1 2016-07-27 04:00:00 Ts debe ser mayor o igual a Td Ts=4.8 - Td=4.9 2023-10-28 10:28:00
1 2016-07-30 03:00:00 Ts debe ser mayor o igual a Td Ts=7.4 - Td=7.5 2023-10-28 10:28:00
1 2016-07-30 05:00:00 Ts debe ser mayor o igual a Td Ts=8.3 - Td=8.4 2023-10-28 10:28:00
1 2016-07-30 06:00:00 Ts debe ser mayor o igual a Td Ts=8.1 - Td=8.2 2023-10-28 10:28:00
1 2016-07-31 05:00:00 Ts debe ser mayor o igual a Td Ts=7.8 - Td=7.9 2023-10-28 10:28:00
1 2016-07-31 07:00:00 Ts debe ser mayor o igual a Td Ts=7.6 - Td=7.7 2023-10-28 10:28:00
1 2016-07-31 12:00:00 Ts debe ser mayor o igual a Td Ts=5.7 - Td=5.8 2023-10-28 10:28:00
1 2016-08-01 15:00:00 Ts debe ser mayor o igual a Td Ts=8.1 - Td=8.2 2023-10-28 10:28:00
1 2016-08-02 13:00:00 Ts debe ser mayor o igual a Td Ts=7.1 - Td=7.2 2023-10-28 10:28:00
1 2016-08-04 10:00:00 Ts debe ser mayor o igual a Td Ts=8.7 - Td=8.8 2023-10-28 10:28:00
1 2016-08-04 14:00:00 Ts debe ser mayor o igual a Td Ts=8.5 - Td=8.6 2023-10-28 10:28:00
1 2016-08-05 04:00:00 Ts debe ser mayor o igual a Td Ts=8.1 - Td=8.2 2023-10-28 10:28:00
1 2016-08-05 15:00:00 Ts debe ser mayor o igual a Td Ts=8.1 - Td=8.2 2023-10-28 10:28:00
1 2016-08-08 15:00:00 Ts debe ser mayor o igual a Td Ts=9.4 - Td=9.5 2023-10-28 10:28:00
1 2016-08-14 07:00:00 Ts debe ser mayor o igual a Td Ts=11.4 - Td=11.5 2023-10-28 10:28:00
1 2016-08-14 09:00:00 Ts debe ser mayor o igual a Td Ts=11.7 - Td=11.8 2023-10-28 10:28:00
1 2016-08-14 13:00:00 Ts debe ser mayor o igual a Td Ts=12.3 - Td=12.4 2023-10-28 10:28:00
1 2016-08-15 10:00:00 Ts debe ser mayor o igual a Td Ts=10.8 - Td=10.9 2023-10-28 10:28:00
1 2016-08-17 14:00:00 Ts debe ser mayor o igual a Td Ts=7.2 - Td=7.3 2023-10-28 10:28:00
1 2016-08-25 09:00:00 Ts debe ser mayor o igual a Td Ts=7.6 - Td=7.7 2023-10-28 10:29:00
1 2016-09-09 09:00:00 Ts debe ser mayor o igual a Td Ts=9.1 - Td=9.2 2023-10-28 10:29:00
1 2016-09-13 10:00:00 Ts debe ser mayor o igual a Td Ts=7.8 - Td=7.9 2023-10-28 10:29:00
1 2016-09-26 12:00:00 Ts debe ser mayor o igual a Td Ts=8.6 - Td=8.7 2023-10-28 10:29:00
1 2016-09-28 09:00:00 Ts debe ser mayor o igual a Td Ts=7.3 - Td=7.4 2023-10-28 10:29:00
1 2016-10-02 07:00:00 Ts debe ser mayor o igual a Td Ts=8.2 - Td=8.3 2023-10-28 10:29:00
1 2016-10-02 13:00:00 Ts debe ser mayor o igual a Td Ts=10.8 - Td=10.9 2023-10-28 10:29:00
1 2016-10-13 09:00:00 Ts debe ser mayor o igual a Td Ts=11.5 - Td=11.6 2023-10-28 10:29:00
1 2016-10-20 11:00:00 Ts debe ser mayor o igual a Td Ts=8.2 - Td=8.3 2023-10-28 10:29:00
1 2016-10-24 08:00:00 Ts debe ser mayor o igual a Td Ts=8.3 - Td=8.4 2023-10-28 10:30:00
1 2016-10-24 09:00:00 Ts debe ser mayor o igual a Td Ts=9.0 - Td=9.1 2023-10-28 10:30:00
1 2016-10-24 10:00:00 Ts debe ser mayor o igual a Td Ts=7.6 - Td=7.7 2023-10-28 10:30:00
1 2016-11-12 15:00:00 Ts debe ser mayor o igual a Td Ts=14.8 - Td=15.2 2023-10-28 10:30:00
1 2016-11-15 10:00:00 HR (Humedad Relativa) es igual a 100% y Ts <> Td 15.3 - 8.3 2023-10-28 10:30:00
1 2016-11-15 13:00:00 Ts debe ser mayor o igual a Td Ts=15.0 - Td=15.4 2023-10-28 10:30:00
1 2016-11-18 17:00:00 Ts debe ser mayor o igual a Td Ts=15.1 - Td=15.2 2023-10-28 10:30:00
1 2016-11-19 14:00:00 Ts debe ser mayor o igual a Td Ts=15.3 - Td=15.6 2023-10-28 10:30:00
1 2016-11-19 15:00:00 Ts debe ser mayor o igual a Td Ts=15.3 - Td=16.1 2023-10-28 10:30:00
1 2016-11-19 16:00:00 Ts debe ser mayor o igual a Td Ts=15.3 - Td=16.0 2023-10-28 10:30:00
1 2016-11-20 17:00:00 Ts debe ser mayor o igual a Td Ts=15.6 - Td=16.0 2023-10-28 10:30:00
1 2016-11-20 19:00:00 Ts debe ser mayor o igual a Td Ts=15.7 - Td=16.3 2023-10-28 10:30:00
1 2016-11-21 18:00:00 Ts debe ser mayor o igual a Td Ts=15.6 - Td=16.4 2023-10-28 10:30:00
1 2016-12-03 10:00:00 HR (Humedad Relativa) es igual a 100% y Ts <> Td 17.1 - 11.1 2023-10-28 10:31:00
1 2016-12-26 10:00:00 Ts debe ser mayor o igual a Td Ts=11.7 - Td=11.8 2023-10-28 10:31:00
1 2017-04-12 12:00:00 Ts debe ser mayor o igual a Td Ts=8.7 - Td=8.8 2023-10-28 10:33:00
1 2017-04-19 11:00:00 Ts debe ser mayor o igual a Td Ts=10.6 - Td=10.7 2023-10-28 10:33:00
1 2017-04-21 03:00:00 Ts debe ser mayor o igual a Td Ts=7.5 - Td=7.6 2023-10-28 10:33:00
1 2017-04-25 09:00:00 Ts debe ser mayor o igual a Td Ts=8.6 - Td=8.7 2023-10-28 10:34:00
1 2017-04-25 12:00:00 Ts debe ser mayor o igual a Td Ts=9.3 - Td=9.4 2023-10-28 10:34:00
1 2017-04-28 13:00:00 Ts debe ser mayor o igual a Td Ts=8.7 - Td=8.8 2023-10-28 10:34:00
1 2017-05-01 12:00:00 Ts debe ser mayor o igual a Td Ts=9.0 - Td=9.1 2023-10-28 10:34:00
1 2017-05-01 15:00:00 Ts debe ser mayor o igual a Td Ts=11.4 - Td=11.5 2023-10-28 10:34:00
1 2017-05-01 16:00:00 Ts debe ser mayor o igual a Td Ts=11.6 - Td=11.7 2023-10-28 10:34:00
1 2017-05-03 09:00:00 Ts debe ser mayor o igual a Td Ts=9.3 - Td=9.4 2023-10-28 10:34:00
1 2017-05-03 11:00:00 Ts debe ser mayor o igual a Td Ts=8.9 - Td=9.0 2023-10-28 10:34:00
1 2017-05-03 14:00:00 Ts debe ser mayor o igual a Td Ts=8.9 - Td=9.0 2023-10-28 10:34:00
1 2017-05-05 14:00:00 Ts debe ser mayor o igual a Td Ts=11.5 - Td=11.6 2023-10-28 10:34:00
1 2017-05-08 10:00:00 Ts debe ser mayor o igual a Td Ts=7.8 - Td=7.9 2023-10-28 10:34:00
1 2017-05-10 14:00:00 Ts debe ser mayor o igual a Td Ts=12.4 - Td=12.5 2023-10-28 10:34:00
1 2017-05-13 08:00:00 Ts debe ser mayor o igual a Td Ts=9.1 - Td=9.2 2023-10-28 10:34:00
1 2017-05-13 12:00:00 Ts debe ser mayor o igual a Td Ts=10.7 - Td=10.8 2023-10-28 10:34:00
1 2017-05-15 09:00:00 Ts debe ser mayor o igual a Td Ts=8.1 - Td=8.2 2023-10-28 10:34:00
1 2017-07-08 11:00:00 Ts debe ser mayor o igual a Td Ts=6.9 - Td=7.0 2023-10-28 10:35:00
1 2017-07-08 15:00:00 Ts debe ser mayor o igual a Td Ts=9.4 - Td=9.5 2023-10-28 10:35:00
1 2017-07-08 17:00:00 Ts debe ser mayor o igual a Td Ts=10.6 - Td=10.7 2023-10-28 10:35:00
1 2017-07-09 10:00:00 Ts debe ser mayor o igual a Td Ts=10.3 - Td=10.4 2023-10-28 10:35:00
1 2017-07-21 11:00:00 Ts debe ser mayor o igual a Td Ts=5.6 - Td=5.7 2023-10-28 10:35:00
1 2017-07-21 13:00:00 Ts debe ser mayor o igual a Td Ts=5.7 - Td=5.8 2023-10-28 10:35:00
1 2017-07-21 15:00:00 Ts debe ser mayor o igual a Td Ts=7.5 - Td=7.6 2023-10-28 10:35:00
1 2017-07-21 16:00:00 Ts debe ser mayor o igual a Td Ts=8.8 - Td=8.9 2023-10-28 10:35:00
1 2017-08-02 17:00:00 Ts debe ser mayor o igual a Td Ts=8.9 - Td=9.0 2023-10-28 10:35:00
1 2017-08-12 16:00:00 Ts debe ser mayor o igual a Td Ts=9.2 - Td=9.3 2023-10-28 10:36:00
1 2017-08-14 09:00:00 Ts debe ser mayor o igual a Td Ts=7.1 - Td=7.2 2023-10-28 10:36:00
1 2017-08-14 15:00:00 Ts debe ser mayor o igual a Td Ts=9.3 - Td=9.4 2023-10-28 10:36:00
1 2017-08-19 02:00:00 Ts debe ser mayor o igual a Td Ts=8.6 - Td=8.7 2023-10-28 10:36:00
1 2017-09-02 06:00:00 Ts debe ser mayor o igual a Td Ts=6.9 - Td=7.0 2023-10-28 10:36:00
1 2017-09-02 09:00:00 Ts debe ser mayor o igual a Td Ts=5.6 - Td=5.7 2023-10-28 10:36:00
1 2017-10-01 12:00:00 Ts debe ser mayor o igual a Td Ts=9.4 - Td=9.5 2023-10-28 10:37:00
1 2017-10-02 12:00:00 Ts debe ser mayor o igual a Td Ts=7.2 - Td=7.3 2023-10-28 10:37:00
1 2017-12-02 06:00:00 Ts debe ser mayor o igual a Td Ts=0.0 - Td=9.2 2023-10-28 10:38:00
1 2017-12-02 07:00:00 Ts debe ser mayor o igual a Td Ts=0.0 - Td=9.7 2023-10-28 10:38:00
1 2017-12-02 08:00:00 Ts debe ser mayor o igual a Td Ts=0.0 - Td=9.7 2023-10-28 10:38:00
1 2017-12-02 09:00:00 Ts debe ser mayor o igual a Td Ts=0.0 - Td=8.9 2023-10-28 10:38:00
1 2017-12-02 10:00:00 Ts debe ser mayor o igual a Td Ts=0.0 - Td=10.3 2023-10-28 10:38:00
1 2017-12-02 11:00:00 Ts debe ser mayor o igual a Td Ts=0.0 - Td=14.0 2023-10-28 10:38:00
1 2017-12-02 12:00:00 Ts debe ser mayor o igual a Td Ts=0.0 - Td=13.8 2023-10-28 10:38:00
1 2017-12-02 13:00:00 Ts debe ser mayor o igual a Td Ts=0.0 - Td=14.4 2023-10-28 10:38:00
1 2017-12-02 14:00:00 Ts debe ser mayor o igual a Td Ts=0.0 - Td=14.5 2023-10-28 10:38:00
1 2017-12-02 15:00:00 Ts debe ser mayor o igual a Td Ts=0.0 - Td=15.9 2023-10-28 10:38:00
1 2017-12-02 16:00:00 Ts debe ser mayor o igual a Td Ts=0.0 - Td=15.2 2023-10-28 10:38:00
1 2017-12-02 17:00:00 Ts debe ser mayor o igual a Td Ts=0.0 - Td=15.7 2023-10-28 10:38:00
1 2017-12-02 18:00:00 Ts debe ser mayor o igual a Td Ts=0.0 - Td=15.4 2023-10-28 10:38:00
1 2017-12-02 19:00:00 Ts debe ser mayor o igual a Td Ts=0.0 - Td=16.2 2023-10-28 10:38:00
1 2017-12-02 20:00:00 Ts debe ser mayor o igual a Td Ts=0.0 - Td=14.3 2023-10-28 10:38:00
1 2017-12-02 21:00:00 Ts debe ser mayor o igual a Td Ts=0.0 - Td=14.2 2023-10-28 10:38:00
1 2017-12-02 22:00:00 Ts debe ser mayor o igual a Td Ts=0.0 - Td=13.8 2023-10-28 10:38:00
1 2017-12-02 23:00:00 Ts debe ser mayor o igual a Td Ts=0.0 - Td=13.2 2023-10-28 10:38:00
1 2017-12-03 00:00:00 Ts debe ser mayor o igual a Td Ts=0.0 - Td=12.7 2023-10-28 10:38:00
1 2017-12-03 01:00:00 Ts debe ser mayor o igual a Td Ts=0.0 - Td=12.1 2023-10-28 10:38:00
1 2017-12-03 02:00:00 Ts debe ser mayor o igual a Td Ts=0.0 - Td=11.3 2023-10-28 10:38:00
1 2017-12-03 03:00:00 Ts debe ser mayor o igual a Td Ts=0.0 - Td=10.6 2023-10-28 10:38:00
1 2018-04-12 14:00:00 Ts debe ser mayor o igual a Td Ts=8.7 - Td=8.8 2023-10-28 10:41:00
1 2018-04-30 09:00:00 Ts debe ser mayor o igual a Td Ts=7.8 - Td=7.9 2023-10-28 10:41:00
1 2018-05-09 04:00:00 Ts debe ser mayor o igual a Td Ts=8.6 - Td=8.7 2023-10-28 10:42:00
1 2018-05-09 11:00:00 Ts debe ser mayor o igual a Td Ts=9.3 - Td=9.4 2023-10-28 10:42:00
1 2018-05-09 12:00:00 Ts debe ser mayor o igual a Td Ts=9.4 - Td=9.5 2023-10-28 10:42:00
1 2018-05-10 09:00:00 Ts debe ser mayor o igual a Td Ts=7.2 - Td=7.3 2023-10-28 10:42:00
1 2018-05-12 15:00:00 Ts debe ser mayor o igual a Td Ts=10.6 - Td=10.7 2023-10-28 10:42:00
1 2018-05-18 14:00:00 Ts debe ser mayor o igual a Td Ts=7.6 - Td=7.7 2023-10-28 10:42:00
1 2018-05-19 09:00:00 Ts debe ser mayor o igual a Td Ts=7.0 - Td=7.1 2023-10-28 10:42:00
1 2018-05-23 18:00:00 Ts debe ser mayor o igual a Td Ts=5.7 - Td=5.8 2023-10-28 10:42:00
1 2018-05-24 15:00:00 Ts debe ser mayor o igual a Td Ts=4.8 - Td=4.9 2023-10-28 10:42:00
1 2018-05-26 09:00:00 Ts debe ser mayor o igual a Td Ts=7.5 - Td=7.6 2023-10-28 10:42:00
1 2018-05-26 13:00:00 Ts debe ser mayor o igual a Td Ts=8.3 - Td=8.4 2023-10-28 10:42:00
1 2018-05-26 15:00:00 Ts debe ser mayor o igual a Td Ts=9.3 - Td=9.4 2023-10-28 10:42:00
1 2018-05-27 14:00:00 Ts debe ser mayor o igual a Td Ts=9.3 - Td=9.4 2023-10-28 10:42:00
1 2018-05-30 17:00:00 Ts debe ser mayor o igual a Td Ts=9.3 - Td=9.4 2023-10-28 10:42:00
1 2018-06-06 05:00:00 Ts debe ser mayor o igual a Td Ts=7.5 - Td=7.6 2023-10-28 10:42:00
1 2018-06-06 06:00:00 Ts debe ser mayor o igual a Td Ts=6.9 - Td=7.0 2023-10-28 10:42:00
1 2018-06-06 09:00:00 Ts debe ser mayor o igual a Td Ts=7.1 - Td=7.2 2023-10-28 10:42:00
1 2018-06-06 10:00:00 Ts debe ser mayor o igual a Td Ts=7.0 - Td=7.1 2023-10-28 10:42:00
1 2018-06-06 16:00:00 Ts debe ser mayor o igual a Td Ts=8.2 - Td=8.3 2023-10-28 10:42:00
1 2018-06-09 05:00:00 Ts debe ser mayor o igual a Td Ts=8.4 - Td=8.5 2023-10-28 10:42:00
1 2018-06-10 01:00:00 Ts debe ser mayor o igual a Td Ts=9.3 - Td=9.4 2023-10-28 10:42:00
1 2018-06-10 06:00:00 Ts debe ser mayor o igual a Td Ts=8.5 - Td=8.6 2023-10-28 10:42:00
1 2018-06-10 08:00:00 Ts debe ser mayor o igual a Td Ts=7.6 - Td=7.7 2023-10-28 10:42:00
1 2018-06-17 14:00:00 Ts debe ser mayor o igual a Td Ts=5.7 - Td=5.8 2023-10-28 10:42:00
1 2018-06-17 16:00:00 Ts debe ser mayor o igual a Td Ts=8.1 - Td=8.2 2023-10-28 10:42:00
1 2018-06-18 15:00:00 Ts debe ser mayor o igual a Td Ts=7.6 - Td=7.7 2023-10-28 10:42:00
1 2018-06-18 19:00:00 Ts debe ser mayor o igual a Td Ts=9.2 - Td=9.3 2023-10-28 10:42:00
1 2018-06-18 23:00:00 Ts debe ser mayor o igual a Td Ts=9.0 - Td=9.1 2023-10-28 10:42:00
1 2018-06-19 02:00:00 Ts debe ser mayor o igual a Td Ts=8.8 - Td=8.9 2023-10-28 10:43:00
1 2018-06-19 14:00:00 Ts debe ser mayor o igual a Td Ts=7.4 - Td=7.5 2023-10-28 10:43:00
1 2018-06-19 22:00:00 Ts debe ser mayor o igual a Td Ts=7.7 - Td=7.8 2023-10-28 10:43:00
1 2018-06-20 01:00:00 Ts debe ser mayor o igual a Td Ts=7.8 - Td=7.9 2023-10-28 10:43:00
1 2018-06-20 11:00:00 Ts debe ser mayor o igual a Td Ts=7.4 - Td=7.5 2023-10-28 10:43:00
1 2018-06-20 12:00:00 Ts debe ser mayor o igual a Td Ts=7.6 - Td=7.7 2023-10-28 10:43:00
1 2018-06-20 15:00:00 Ts debe ser mayor o igual a Td Ts=8.6 - Td=8.7 2023-10-28 10:43:00
1 2018-06-22 16:00:00 Ts debe ser mayor o igual a Td Ts=7.5 - Td=7.6 2023-10-28 10:43:00
1 2018-07-10 17:00:00 Ts debe ser mayor o igual a Td Ts=8.7 - Td=8.8 2023-10-28 10:43:00
1 2018-07-12 17:00:00 Ts debe ser mayor o igual a Td Ts=8.5 - Td=8.6 2023-10-28 10:43:00
1 2018-07-13 17:00:00 Ts debe ser mayor o igual a Td Ts=11.4 - Td=11.5 2023-10-28 10:43:00
1 2018-07-14 04:00:00 Ts debe ser mayor o igual a Td Ts=9.4 - Td=9.5 2023-10-28 10:43:00
1 2018-07-14 11:00:00 Ts debe ser mayor o igual a Td Ts=10.6 - Td=10.7 2023-10-28 10:43:00
1 2018-07-15 02:00:00 Ts debe ser mayor o igual a Td Ts=8.7 - Td=8.8 2023-10-28 10:43:00
1 2018-07-15 03:00:00 Ts debe ser mayor o igual a Td Ts=8.4 - Td=8.5 2023-10-28 10:43:00
1 2018-07-29 16:00:00 Ts debe ser mayor o igual a Td Ts=7.0 - Td=7.1 2023-10-28 10:43:00
1 2018-08-07 06:00:00 Ts debe ser mayor o igual a Td Ts=8.9 - Td=9.0 2023-10-28 10:43:00
1 2018-08-07 07:00:00 Ts debe ser mayor o igual a Td Ts=9.0 - Td=9.1 2023-10-28 10:43:00
1 2018-08-07 09:00:00 Ts debe ser mayor o igual a Td Ts=8.2 - Td=8.3 2023-10-28 10:43:00
1 2018-08-07 10:00:00 Ts debe ser mayor o igual a Td Ts=7.8 - Td=7.9 2023-10-28 10:43:00
1 2018-08-07 11:00:00 Ts debe ser mayor o igual a Td Ts=7.4 - Td=7.5 2023-10-28 10:43:00
1 2018-08-07 14:00:00 Ts debe ser mayor o igual a Td Ts=9.1 - Td=9.2 2023-10-28 10:43:00
1 2018-08-10 16:00:00 Ts debe ser mayor o igual a Td Ts=6.9 - Td=7.0 2023-10-28 10:43:00
1 2018-08-23 11:00:00 Ts debe ser mayor o igual a Td Ts=7.1 - Td=7.2 2023-10-28 10:44:00
1 2018-08-23 12:00:00 Ts debe ser mayor o igual a Td Ts=7.6 - Td=7.7 2023-10-28 10:44:00
1 2018-08-31 04:00:00 Ts debe ser mayor o igual a Td Ts=8.3 - Td=8.4 2023-10-28 10:44:00
1 2018-08-31 10:00:00 Ts debe ser mayor o igual a Td Ts=7.1 - Td=7.2 2023-10-28 10:44:00
1 2019-04-25 12:00:00 HR (Humedad Relativa) es igual a 100% y Ts <> Td 6.5 - 0.0 2023-10-28 10:47:00
1 2019-04-25 13:00:00 HR (Humedad Relativa) es igual a 100% y Ts <> Td 8.7 - 0.0 2023-10-28 10:47:00
1 2019-04-25 14:00:00 HR (Humedad Relativa) es igual a 100% y Ts <> Td 9.9 - 0.0 2023-10-28 10:47:00
1 2019-04-30 11:00:00 Ts debe ser mayor o igual a Td Ts=-0.2 - Td=0.0 2023-10-28 10:48:00
1 2019-05-05 11:00:00 HR (Humedad Relativa) es igual a 100% y Ts <> Td 11.9 - 0.0 2023-10-28 10:48:00
1 2019-05-05 12:00:00 HR (Humedad Relativa) es igual a 100% y Ts <> Td 10.7 - 0.0 2023-10-28 10:48:00
1 2019-05-05 13:00:00 HR (Humedad Relativa) es igual a 100% y Ts <> Td 10.7 - 0.0 2023-10-28 10:48:00
1 2019-05-05 14:00:00 HR (Humedad Relativa) es igual a 100% y Ts <> Td 11.6 - 0.0 2023-10-28 10:48:00
1 2019-05-06 13:00:00 HR (Humedad Relativa) es igual a 100% y Ts <> Td 9.0 - 0.0 2023-10-28 10:48:00
1 2019-05-06 15:00:00 HR (Humedad Relativa) es igual a 100% y Ts <> Td 9.2 - 0.0 2023-10-28 10:48:00
1 2019-05-07 09:00:00 HR (Humedad Relativa) es igual a 100% y Ts <> Td 9.8 - 0.0 2023-10-28 10:48:00
1 2019-05-07 10:00:00 HR (Humedad Relativa) es igual a 100% y Ts <> Td 9.5 - 0.0 2023-10-28 10:48:00
1 2019-05-07 11:00:00 HR (Humedad Relativa) es igual a 100% y Ts <> Td 9.4 - 0.0 2023-10-28 10:48:00
1 2019-05-07 12:00:00 HR (Humedad Relativa) es igual a 100% y Ts <> Td 9.8 - 0.0 2023-10-28 10:48:00
1 2019-05-07 13:00:00 HR (Humedad Relativa) es igual a 100% y Ts <> Td 10.0 - 0.0 2023-10-28 10:48:00
1 2019-05-07 14:00:00 HR (Humedad Relativa) es igual a 100% y Ts <> Td 10.1 - 0.0 2023-10-28 10:48:00
1 2019-05-07 16:00:00 HR (Humedad Relativa) es igual a 100% y Ts <> Td 10.3 - 0.0 2023-10-28 10:48:00
1 2019-05-10 08:00:00 HR (Humedad Relativa) es igual a 100% y Ts <> Td 4.8 - 0.0 2023-10-28 10:48:00
1 2019-05-10 09:00:00 HR (Humedad Relativa) es igual a 100% y Ts <> Td 4.4 - 0.0 2023-10-28 10:48:00
1 2019-05-10 10:00:00 HR (Humedad Relativa) es igual a 100% y Ts <> Td 4.4 - 0.0 2023-10-28 10:48:00
1 2019-05-10 11:00:00 HR (Humedad Relativa) es igual a 100% y Ts <> Td 4.3 - 0.0 2023-10-28 10:48:00
1 2019-05-10 12:00:00 HR (Humedad Relativa) es igual a 100% y Ts <> Td 4.8 - 0.0 2023-10-28 10:48:00
1 2019-05-10 13:00:00 HR (Humedad Relativa) es igual a 100% y Ts <> Td 4.7 - 0.0 2023-10-28 10:48:00
1 2019-05-10 14:00:00 HR (Humedad Relativa) es igual a 100% y Ts <> Td 5.5 - 0.0 2023-10-28 10:48:00
1 2019-05-10 15:00:00 HR (Humedad Relativa) es igual a 100% y Ts <> Td 6.4 - 0.0 2023-10-28 10:48:00
1 2019-05-10 16:00:00 HR (Humedad Relativa) es igual a 100% y Ts <> Td 6.6 - 0.0 2023-10-28 10:48:00
1 2019-05-10 17:00:00 HR (Humedad Relativa) es igual a 100% y Ts <> Td 8.3 - 0.0 2023-10-28 10:48:00
1 2019-05-11 10:00:00 HR (Humedad Relativa) es igual a 100% y Ts <> Td 2.7 - 0.0 2023-10-28 10:48:00
1 2019-05-11 12:00:00 HR (Humedad Relativa) es igual a 100% y Ts <> Td 3.3 - 0.0 2023-10-28 10:48:00
1 2019-05-11 13:00:00 HR (Humedad Relativa) es igual a 100% y Ts <> Td 5.5 - 0.0 2023-10-28 10:48:00
1 2019-05-11 15:00:00 HR (Humedad Relativa) es igual a 100% y Ts <> Td 8.2 - 0.0 2023-10-28 10:48:00
1 2019-05-11 16:00:00 HR (Humedad Relativa) es igual a 100% y Ts <> Td 9.6 - 0.0 2023-10-28 10:48:00
1 2019-05-12 12:00:00 HR (Humedad Relativa) es igual a 100% y Ts <> Td 7.3 - 0.0 2023-10-28 10:48:00
1 2019-05-12 13:00:00 HR (Humedad Relativa) es igual a 100% y Ts <> Td 8.5 - 0.0 2023-10-28 10:48:00
1 2019-05-12 15:00:00 HR (Humedad Relativa) es igual a 100% y Ts <> Td 11.4 - 0.0 2023-10-28 10:48:00
1 2019-05-14 10:00:00 HR (Humedad Relativa) es igual a 100% y Ts <> Td 4.7 - 0.0 2023-10-28 10:48:00
1 2019-05-14 11:00:00 HR (Humedad Relativa) es igual a 100% y Ts <> Td 4.5 - 0.0 2023-10-28 10:48:00
1 2019-05-14 12:00:00 HR (Humedad Relativa) es igual a 100% y Ts <> Td 5.2 - 0.0 2023-10-28 10:48:00
1 2019-05-14 13:00:00 HR (Humedad Relativa) es igual a 100% y Ts <> Td 6.0 - 0.0 2023-10-28 10:48:00
1 2019-05-14 14:00:00 HR (Humedad Relativa) es igual a 100% y Ts <> Td 7.2 - 0.0 2023-10-28 10:48:00
1 2019-05-14 15:00:00 HR (Humedad Relativa) es igual a 100% y Ts <> Td 8.3 - 0.0 2023-10-28 10:48:00
1 2019-05-14 16:00:00 HR (Humedad Relativa) es igual a 100% y Ts <> Td 9.6 - 0.0 2023-10-28 10:48:00
1 2019-05-15 09:00:00 HR (Humedad Relativa) es igual a 100% y Ts <> Td 4.4 - 0.0 2023-10-28 10:48:00
1 2019-05-15 10:00:00 HR (Humedad Relativa) es igual a 100% y Ts <> Td 5.6 - 0.0 2023-10-28 10:48:00
1 2019-05-15 11:00:00 HR (Humedad Relativa) es igual a 100% y Ts <> Td 4.9 - 0.0 2023-10-28 10:48:00
1 2019-05-15 12:00:00 HR (Humedad Relativa) es igual a 100% y Ts <> Td 4.8 - 0.0 2023-10-28 10:48:00
1 2019-05-15 13:00:00 HR (Humedad Relativa) es igual a 100% y Ts <> Td 6.3 - 0.0 2023-10-28 10:48:00
1 2019-05-15 14:00:00 HR (Humedad Relativa) es igual a 100% y Ts <> Td 8.2 - 0.0 2023-10-28 10:48:00
1 2019-05-15 15:00:00 HR (Humedad Relativa) es igual a 100% y Ts <> Td 10.2 - 0.0 2023-10-28 10:48:00
1 2019-05-18 06:00:00 HR (Humedad Relativa) es igual a 100% y Ts <> Td 7.6 - 0.0 2023-10-28 10:48:00
1 2019-05-18 07:00:00 HR (Humedad Relativa) es igual a 100% y Ts <> Td 7.3 - 0.0 2023-10-28 10:48:00
1 2019-05-18 08:00:00 HR (Humedad Relativa) es igual a 100% y Ts <> Td 8.0 - 0.0 2023-10-28 10:48:00
1 2019-05-18 09:00:00 HR (Humedad Relativa) es igual a 100% y Ts <> Td 7.3 - 0.0 2023-10-28 10:48:00
1 2019-05-18 10:00:00 HR (Humedad Relativa) es igual a 100% y Ts <> Td 7.3 - 0.0 2023-10-28 10:48:00
1 2019-05-18 11:00:00 HR (Humedad Relativa) es igual a 100% y Ts <> Td 8.0 - 0.0 2023-10-28 10:48:00
1 2019-05-18 12:00:00 HR (Humedad Relativa) es igual a 100% y Ts <> Td 6.5 - 0.0 2023-10-28 10:48:00
1 2019-05-18 13:00:00 HR (Humedad Relativa) es igual a 100% y Ts <> Td 7.1 - 0.0 2023-10-28 10:48:00
1 2019-05-18 14:00:00 HR (Humedad Relativa) es igual a 100% y Ts <> Td 8.0 - 0.0 2023-10-28 10:48:00
1 2019-05-18 15:00:00 HR (Humedad Relativa) es igual a 100% y Ts <> Td 9.2 - 0.0 2023-10-28 10:48:00
1 2019-05-18 16:00:00 HR (Humedad Relativa) es igual a 100% y Ts <> Td 10.1 - 0.0 2023-10-28 10:48:00
1 2019-05-22 08:00:00 Ts debe ser mayor o igual a Td Ts=-0.2 - Td=0.0 2023-10-28 10:48:00
1 2019-05-22 10:00:00 Ts debe ser mayor o igual a Td Ts=-0.3 - Td=0.0 2023-10-28 10:48:00
1 2019-05-22 11:00:00 Ts debe ser mayor o igual a Td Ts=-0.7 - Td=0.0 2023-10-28 10:48:00
1 2019-05-22 12:00:00 Ts debe ser mayor o igual a Td Ts=-1.0 - Td=0.0 2023-10-28 10:48:00
1 2019-05-23 12:00:00 Ts debe ser mayor o igual a Td Ts=-0.1 - Td=0.0 2023-10-28 10:48:00
1 2019-05-24 12:00:00 HR (Humedad Relativa) es igual a 100% y Ts <> Td 2.2 - 0.0 2023-10-28 10:48:00
1 2019-05-24 14:00:00 HR (Humedad Relativa) es igual a 100% y Ts <> Td 4.0 - 0.0 2023-10-28 10:48:00
1 2019-05-24 15:00:00 HR (Humedad Relativa) es igual a 100% y Ts <> Td 5.3 - 0.0 2023-10-28 10:48:00
1 2019-05-24 16:00:00 HR (Humedad Relativa) es igual a 100% y Ts <> Td 6.9 - 0.0 2023-10-28 10:48:00
1 2019-06-07 14:00:00 HR (Humedad Relativa) es igual a 100% y Ts <> Td 4.9 - 0.0 2023-10-28 10:48:00
1 2019-06-07 16:00:00 HR (Humedad Relativa) es igual a 100% y Ts <> Td 8.5 - 0.0 2023-10-28 10:48:00
1 2019-06-09 14:00:00 HR (Humedad Relativa) es igual a 100% y Ts <> Td 6.2 - 0.0 2023-10-28 10:48:00
1 2019-06-09 15:00:00 HR (Humedad Relativa) es igual a 100% y Ts <> Td 7.6 - 0.0 2023-10-28 10:48:00
1 2019-06-09 16:00:00 HR (Humedad Relativa) es igual a 100% y Ts <> Td 7.8 - 0.0 2023-10-28 10:48:00
1 2019-06-09 17:00:00 HR (Humedad Relativa) es igual a 100% y Ts <> Td 8.3 - 0.0 2023-10-28 10:48:00
1 2019-06-10 14:00:00 HR (Humedad Relativa) es igual a 100% y Ts <> Td 7.4 - 0.0 2023-10-28 10:48:00
1 2019-06-14 06:00:00 HR (Humedad Relativa) es igual a 100% y Ts <> Td 7.3 - 0.0 2023-10-28 10:49:00
1 2019-06-14 07:00:00 HR (Humedad Relativa) es igual a 100% y Ts <> Td 7.5 - 0.0 2023-10-28 10:49:00
1 2019-06-14 08:00:00 HR (Humedad Relativa) es igual a 100% y Ts <> Td 7.6 - 0.0 2023-10-28 10:49:00
1 2019-06-14 09:00:00 HR (Humedad Relativa) es igual a 100% y Ts <> Td 7.6 - 0.0 2023-10-28 10:49:00
1 2019-06-14 10:00:00 HR (Humedad Relativa) es igual a 100% y Ts <> Td 7.6 - 0.0 2023-10-28 10:49:00
1 2019-06-14 11:00:00 HR (Humedad Relativa) es igual a 100% y Ts <> Td 8.2 - 0.0 2023-10-28 10:49:00
1 2019-06-14 12:00:00 HR (Humedad Relativa) es igual a 100% y Ts <> Td 8.3 - 0.0 2023-10-28 10:49:00
1 2019-06-14 13:00:00 HR (Humedad Relativa) es igual a 100% y Ts <> Td 7.7 - 0.0 2023-10-28 10:49:00
1 2019-06-14 14:00:00 HR (Humedad Relativa) es igual a 100% y Ts <> Td 8.4 - 0.0 2023-10-28 10:49:00
1 2019-06-14 15:00:00 HR (Humedad Relativa) es igual a 100% y Ts <> Td 8.4 - 0.0 2023-10-28 10:49:00
1 2019-06-14 16:00:00 HR (Humedad Relativa) es igual a 100% y Ts <> Td 7.8 - 0.0 2023-10-28 10:49:00
1 2019-06-14 17:00:00 HR (Humedad Relativa) es igual a 100% y Ts <> Td 7.6 - 0.0 2023-10-28 10:49:00
1 2019-06-14 18:00:00 HR (Humedad Relativa) es igual a 100% y Ts <> Td 8.2 - 0.0 2023-10-28 10:49:00
1 2019-06-15 10:00:00 HR (Humedad Relativa) es igual a 100% y Ts <> Td 3.0 - 0.0 2023-10-28 10:49:00
1 2019-06-15 11:00:00 HR (Humedad Relativa) es igual a 100% y Ts <> Td 2.9 - 0.0 2023-10-28 10:49:00
1 2019-06-15 12:00:00 HR (Humedad Relativa) es igual a 100% y Ts <> Td 3.1 - 0.0 2023-10-28 10:49:00
1 2019-06-15 13:00:00 HR (Humedad Relativa) es igual a 100% y Ts <> Td 3.6 - 0.0 2023-10-28 10:49:00
1 2019-06-15 14:00:00 HR (Humedad Relativa) es igual a 100% y Ts <> Td 3.1 - 0.0 2023-10-28 10:49:00
1 2019-06-15 15:00:00 HR (Humedad Relativa) es igual a 100% y Ts <> Td 3.9 - 0.0 2023-10-28 10:49:00
1 2019-06-15 16:00:00 HR (Humedad Relativa) es igual a 100% y Ts <> Td 5.3 - 0.0 2023-10-28 10:49:00
1 2019-06-15 17:00:00 HR (Humedad Relativa) es igual a 100% y Ts <> Td 6.2 - 0.0 2023-10-28 10:49:00
1 2019-06-15 18:00:00 HR (Humedad Relativa) es igual a 100% y Ts <> Td 6.9 - 0.0 2023-10-28 10:49:00
1 2019-06-15 19:00:00 HR (Humedad Relativa) es igual a 100% y Ts <> Td 7.3 - 0.0 2023-10-28 10:49:00
1 2019-06-16 04:00:00 HR (Humedad Relativa) es igual a 100% y Ts <> Td 5.1 - 0.0 2023-10-28 10:49:00
1 2019-06-16 05:00:00 HR (Humedad Relativa) es igual a 100% y Ts <> Td 5.2 - 0.0 2023-10-28 10:49:00
1 2019-06-16 06:00:00 HR (Humedad Relativa) es igual a 100% y Ts <> Td 5.0 - 0.0 2023-10-28 10:49:00
1 2019-06-16 07:00:00 HR (Humedad Relativa) es igual a 100% y Ts <> Td 4.8 - 0.0 2023-10-28 10:49:00
1 2019-06-16 08:00:00 HR (Humedad Relativa) es igual a 100% y Ts <> Td 4.7 - 0.0 2023-10-28 10:49:00
1 2019-06-16 09:00:00 HR (Humedad Relativa) es igual a 100% y Ts <> Td 4.5 - 0.0 2023-10-28 10:49:00
1 2019-06-16 10:00:00 HR (Humedad Relativa) es igual a 100% y Ts <> Td 4.3 - 0.0 2023-10-28 10:49:00
1 2019-06-16 11:00:00 HR (Humedad Relativa) es igual a 100% y Ts <> Td 4.2 - 0.0 2023-10-28 10:49:00
1 2019-06-16 12:00:00 HR (Humedad Relativa) es igual a 100% y Ts <> Td 4.4 - 0.0 2023-10-28 10:49:00
1 2019-06-16 13:00:00 HR (Humedad Relativa) es igual a 100% y Ts <> Td 4.1 - 0.0 2023-10-28 10:49:00
1 2019-06-16 14:00:00 HR (Humedad Relativa) es igual a 100% y Ts <> Td 4.8 - 0.0 2023-10-28 10:49:00
1 2019-06-16 15:00:00 HR (Humedad Relativa) es igual a 100% y Ts <> Td 5.8 - 0.0 2023-10-28 10:49:00
1 2019-06-16 16:00:00 HR (Humedad Relativa) es igual a 100% y Ts <> Td 6.8 - 0.0 2023-10-28 10:49:00
1 2019-06-16 17:00:00 HR (Humedad Relativa) es igual a 100% y Ts <> Td 9.2 - 0.0 2023-10-28 10:49:00
1 2019-06-17 06:00:00 Ts debe ser mayor o igual a Td Ts=-0.1 - Td=0.0 2023-10-28 10:49:00
1 2019-06-17 08:00:00 Ts debe ser mayor o igual a Td Ts=-0.7 - Td=0.0 2023-10-28 10:49:00
1 2019-06-17 08:00:00 HR (Humedad Relativa) es igual a 100% y Ts <> Td -0.7 - 0.0 2023-10-28 10:49:00
1 2019-06-17 09:00:00 Ts debe ser mayor o igual a Td Ts=-0.1 - Td=0.0 2023-10-28 10:49:00
1 2019-06-17 11:00:00 HR (Humedad Relativa) es igual a 100% y Ts <> Td 0.2 - 0.0 2023-10-28 10:49:00
1 2019-06-17 12:00:00 HR (Humedad Relativa) es igual a 100% y Ts <> Td 0.5 - 0.0 2023-10-28 10:49:00
1 2019-06-17 13:00:00 HR (Humedad Relativa) es igual a 100% y Ts <> Td 1.3 - 0.0 2023-10-28 10:49:00
1 2019-06-17 14:00:00 HR (Humedad Relativa) es igual a 100% y Ts <> Td 3.9 - 0.0 2023-10-28 10:49:00
1 2019-06-17 15:00:00 HR (Humedad Relativa) es igual a 100% y Ts <> Td 7.1 - 0.0 2023-10-28 10:49:00
1 2019-06-18 12:00:00 HR (Humedad Relativa) es igual a 100% y Ts <> Td 4.4 - 0.0 2023-10-28 10:49:00
1 2019-06-18 13:00:00 HR (Humedad Relativa) es igual a 100% y Ts <> Td 5.0 - 0.0 2023-10-28 10:49:00
1 2019-06-19 11:00:00 HR (Humedad Relativa) es igual a 100% y Ts <> Td 2.6 - 0.0 2023-10-28 10:49:00
1 2019-06-19 12:00:00 HR (Humedad Relativa) es igual a 100% y Ts <> Td 2.7 - 0.0 2023-10-28 10:49:00
1 2019-06-19 13:00:00 HR (Humedad Relativa) es igual a 100% y Ts <> Td 2.3 - 0.0 2023-10-28 10:49:00
1 2019-06-19 14:00:00 HR (Humedad Relativa) es igual a 100% y Ts <> Td 2.3 - 0.0 2023-10-28 10:49:00
1 2019-06-19 15:00:00 HR (Humedad Relativa) es igual a 100% y Ts <> Td 3.6 - 0.0 2023-10-28 10:49:00
1 2019-06-20 10:00:00 HR (Humedad Relativa) es igual a 100% y Ts <> Td 1.2 - 0.0 2023-10-28 10:49:00
1 2019-06-20 11:00:00 HR (Humedad Relativa) es igual a 100% y Ts <> Td 1.0 - 0.0 2023-10-28 10:49:00
1 2019-06-20 12:00:00 HR (Humedad Relativa) es igual a 100% y Ts <> Td 1.0 - 0.0 2023-10-28 10:49:00
1 2019-06-20 13:00:00 HR (Humedad Relativa) es igual a 100% y Ts <> Td 1.9 - 0.0 2023-10-28 10:49:00
1 2019-06-20 14:00:00 HR (Humedad Relativa) es igual a 100% y Ts <> Td 5.1 - 0.0 2023-10-28 10:49:00
1 2019-06-20 15:00:00 HR (Humedad Relativa) es igual a 100% y Ts <> Td 8.5 - 0.0 2023-10-28 10:49:00
1 2019-06-22 12:00:00 HR (Humedad Relativa) es igual a 100% y Ts <> Td 1.3 - 0.0 2023-10-28 10:49:00
1 2019-06-24 17:00:00 HR (Humedad Relativa) es igual a 100% y Ts <> Td 6.9 - 0.0 2023-10-28 10:49:00
1 2019-06-24 18:00:00 HR (Humedad Relativa) es igual a 100% y Ts <> Td 6.6 - 0.0 2023-10-28 10:49:00
1 2019-06-25 07:00:00 Ts debe ser mayor o igual a Td Ts=-0.3 - Td=0.0 2023-10-28 10:49:00
1 2019-06-25 08:00:00 Ts debe ser mayor o igual a Td Ts=-0.4 - Td=0.0 2023-10-28 10:49:00
1 2019-06-25 09:00:00 Ts debe ser mayor o igual a Td Ts=-1.0 - Td=0.0 2023-10-28 10:49:00
1 2019-06-25 10:00:00 Ts debe ser mayor o igual a Td Ts=-1.6 - Td=0.0 2023-10-28 10:49:00
1 2019-06-25 11:00:00 Ts debe ser mayor o igual a Td Ts=-1.7 - Td=0.0 2023-10-28 10:49:00
1 2019-06-25 12:00:00 Ts debe ser mayor o igual a Td Ts=-2.0 - Td=0.0 2023-10-28 10:49:00
1 2019-06-25 13:00:00 Ts debe ser mayor o igual a Td Ts=-1.5 - Td=0.0 2023-10-28 10:49:00
1 2019-06-25 14:00:00 Ts debe ser mayor o igual a Td Ts=-0.5 - Td=0.0 2023-10-28 10:49:00
1 2019-06-25 14:00:00 HR (Humedad Relativa) es igual a 100% y Ts <> Td -0.5 - 0.0 2023-10-28 10:49:00
1 2019-06-25 15:00:00 HR (Humedad Relativa) es igual a 100% y Ts <> Td 1.2 - 0.0 2023-10-28 10:49:00
1 2019-06-25 16:00:00 HR (Humedad Relativa) es igual a 100% y Ts <> Td 2.9 - 0.0 2023-10-28 10:49:00
1 2019-06-25 17:00:00 HR (Humedad Relativa) es igual a 100% y Ts <> Td 4.9 - 0.0 2023-10-28 10:49:00
1 2019-06-30 14:00:00 HR (Humedad Relativa) es igual a 100% y Ts <> Td 5.2 - 0.0 2023-10-28 10:49:00
1 2019-06-30 15:00:00 HR (Humedad Relativa) es igual a 100% y Ts <> Td 5.5 - 0.0 2023-10-28 10:49:00
1 2019-06-30 16:00:00 HR (Humedad Relativa) es igual a 100% y Ts <> Td 6.1 - 0.0 2023-10-28 10:49:00
1 2019-07-01 13:00:00 HR (Humedad Relativa) es igual a 100% y Ts <> Td 1.9 - 0.0 2023-10-28 10:49:00
1 2019-07-01 14:00:00 HR (Humedad Relativa) es igual a 100% y Ts <> Td 2.2 - 0.0 2023-10-28 10:49:00
1 2019-07-01 15:00:00 HR (Humedad Relativa) es igual a 100% y Ts <> Td 2.7 - 0.0 2023-10-28 10:49:00
1 2019-07-01 16:00:00 HR (Humedad Relativa) es igual a 100% y Ts <> Td 3.1 - 0.0 2023-10-28 10:49:00
1 2019-07-02 02:00:00 Ts debe ser mayor o igual a Td Ts=-0.5 - Td=0.0 2023-10-28 10:49:00
1 2019-07-02 03:00:00 Ts debe ser mayor o igual a Td Ts=-0.4 - Td=0.0 2023-10-28 10:49:00
1 2019-07-02 08:00:00 HR (Humedad Relativa) es igual a 100% y Ts <> Td 1.4 - 0.0 2023-10-28 10:49:00
1 2019-07-02 09:00:00 HR (Humedad Relativa) es igual a 100% y Ts <> Td 1.9 - 0.0 2023-10-28 10:49:00
1 2019-07-02 10:00:00 HR (Humedad Relativa) es igual a 100% y Ts <> Td 2.3 - 0.0 2023-10-28 10:49:00
1 2019-07-02 11:00:00 HR (Humedad Relativa) es igual a 100% y Ts <> Td 2.6 - 0.0 2023-10-28 10:49:00
1 2019-07-02 12:00:00 HR (Humedad Relativa) es igual a 100% y Ts <> Td 2.9 - 0.0 2023-10-28 10:49:00
1 2019-07-02 13:00:00 HR (Humedad Relativa) es igual a 100% y Ts <> Td 3.6 - 0.0 2023-10-28 10:49:00
1 2019-07-02 14:00:00 HR (Humedad Relativa) es igual a 100% y Ts <> Td 4.8 - 0.0 2023-10-28 10:49:00
1 2019-07-03 07:00:00 HR (Humedad Relativa) es igual a 100% y Ts <> Td 5.7 - 0.0 2023-10-28 10:49:00
1 2019-07-03 08:00:00 HR (Humedad Relativa) es igual a 100% y Ts <> Td 5.4 - 0.0 2023-10-28 10:49:00
1 2019-07-03 09:00:00 HR (Humedad Relativa) es igual a 100% y Ts <> Td 5.5 - 0.0 2023-10-28 10:49:00
1 2019-07-03 10:00:00 HR (Humedad Relativa) es igual a 100% y Ts <> Td 5.4 - 0.0 2023-10-28 10:49:00
1 2019-07-03 11:00:00 HR (Humedad Relativa) es igual a 100% y Ts <> Td 4.8 - 0.0 2023-10-28 10:49:00
1 2019-07-03 12:00:00 HR (Humedad Relativa) es igual a 100% y Ts <> Td 4.8 - 0.0 2023-10-28 10:49:00
1 2019-07-03 13:00:00 HR (Humedad Relativa) es igual a 100% y Ts <> Td 5.2 - 0.0 2023-10-28 10:49:00
1 2019-07-03 14:00:00 HR (Humedad Relativa) es igual a 100% y Ts <> Td 5.7 - 0.0 2023-10-28 10:49:00
1 2019-07-03 15:00:00 HR (Humedad Relativa) es igual a 100% y Ts <> Td 6.9 - 0.0 2023-10-28 10:49:00
1 2019-07-03 16:00:00 HR (Humedad Relativa) es igual a 100% y Ts <> Td 7.9 - 0.0 2023-10-28 10:49:00
1 2019-07-04 06:00:00 HR (Humedad Relativa) es igual a 100% y Ts <> Td 7.4 - 0.0 2023-10-28 10:49:00
1 2019-07-04 07:00:00 HR (Humedad Relativa) es igual a 100% y Ts <> Td 7.5 - 0.0 2023-10-28 10:49:00
1 2019-07-04 08:00:00 HR (Humedad Relativa) es igual a 100% y Ts <> Td 6.4 - 0.0 2023-10-28 10:49:00
1 2019-07-04 09:00:00 HR (Humedad Relativa) es igual a 100% y Ts <> Td 5.9 - 0.0 2023-10-28 10:49:00
1 2019-07-04 10:00:00 HR (Humedad Relativa) es igual a 100% y Ts <> Td 5.4 - 0.0 2023-10-28 10:49:00
1 2019-07-04 11:00:00 HR (Humedad Relativa) es igual a 100% y Ts <> Td 4.8 - 0.0 2023-10-28 10:49:00
1 2019-07-04 12:00:00 HR (Humedad Relativa) es igual a 100% y Ts <> Td 4.7 - 0.0 2023-10-28 10:49:00
1 2019-07-04 13:00:00 HR (Humedad Relativa) es igual a 100% y Ts <> Td 4.5 - 0.0 2023-10-28 10:49:00
1 2019-07-04 14:00:00 HR (Humedad Relativa) es igual a 100% y Ts <> Td 4.9 - 0.0 2023-10-28 10:49:00
1 2019-07-04 15:00:00 HR (Humedad Relativa) es igual a 100% y Ts <> Td 5.2 - 0.0 2023-10-28 10:49:00
1 2019-07-04 16:00:00 HR (Humedad Relativa) es igual a 100% y Ts <> Td 7.5 - 0.0 2023-10-28 10:49:00
1 2019-07-06 07:00:00 Ts debe ser mayor o igual a Td Ts=-0.4 - Td=0.0 2023-10-28 10:49:00
1 2019-07-06 08:00:00 Ts debe ser mayor o igual a Td Ts=-0.3 - Td=0.0 2023-10-28 10:49:00
1 2019-07-06 09:00:00 Ts debe ser mayor o igual a Td Ts=-0.5 - Td=0.0 2023-10-28 10:49:00
1 2019-07-10 14:00:00 HR (Humedad Relativa) es igual a 100% y Ts <> Td 6.7 - 0.0 2023-10-28 10:49:00
1 2019-07-10 15:00:00 HR (Humedad Relativa) es igual a 100% y Ts <> Td 7.6 - 0.0 2023-10-28 10:49:00
1 2019-07-12 10:00:00 HR (Humedad Relativa) es igual a 100% y Ts <> Td 3.9 - 0.0 2023-10-28 10:49:00
1 2019-07-12 11:00:00 HR (Humedad Relativa) es igual a 100% y Ts <> Td 3.3 - 0.0 2023-10-28 10:49:00
1 2019-07-12 12:00:00 HR (Humedad Relativa) es igual a 100% y Ts <> Td 2.8 - 0.0 2023-10-28 10:49:00
1 2019-07-12 13:00:00 HR (Humedad Relativa) es igual a 100% y Ts <> Td 3.4 - 0.0 2023-10-28 10:49:00
1 2019-07-12 14:00:00 HR (Humedad Relativa) es igual a 100% y Ts <> Td 5.9 - 0.0 2023-10-28 10:49:00
1 2019-07-12 15:00:00 HR (Humedad Relativa) es igual a 100% y Ts <> Td 7.6 - 0.0 2023-10-28 10:49:00
1 2019-07-12 16:00:00 HR (Humedad Relativa) es igual a 100% y Ts <> Td 8.7 - 0.0 2023-10-28 10:49:00
1 2019-07-12 17:00:00 HR (Humedad Relativa) es igual a 100% y Ts <> Td 11.1 - 0.0 2023-10-28 10:49:00
1 2019-07-14 13:00:00 HR (Humedad Relativa) es igual a 100% y Ts <> Td 6.1 - 0.0 2023-10-28 10:49:00
1 2019-07-15 14:00:00 HR (Humedad Relativa) es igual a 100% y Ts <> Td 5.4 - 0.0 2023-10-28 10:49:00
1 2019-07-18 06:00:00 HR (Humedad Relativa) es igual a 100% y Ts <> Td 6.4 - 0.0 2023-10-28 10:49:00
1 2019-07-18 07:00:00 HR (Humedad Relativa) es igual a 100% y Ts <> Td 6.3 - 0.0 2023-10-28 10:49:00
1 2019-07-18 08:00:00 HR (Humedad Relativa) es igual a 100% y Ts <> Td 6.1 - 0.0 2023-10-28 10:49:00
1 2019-07-18 09:00:00 HR (Humedad Relativa) es igual a 100% y Ts <> Td 4.9 - 0.0 2023-10-28 10:49:00
1 2019-07-18 10:00:00 HR (Humedad Relativa) es igual a 100% y Ts <> Td 5.0 - 0.0 2023-10-28 10:49:00
1 2019-07-18 11:00:00 HR (Humedad Relativa) es igual a 100% y Ts <> Td 4.7 - 0.0 2023-10-28 10:49:00
1 2019-07-18 12:00:00 HR (Humedad Relativa) es igual a 100% y Ts <> Td 4.0 - 0.0 2023-10-28 10:49:00
1 2019-07-18 13:00:00 HR (Humedad Relativa) es igual a 100% y Ts <> Td 4.2 - 0.0 2023-10-28 10:49:00
1 2019-07-18 14:00:00 HR (Humedad Relativa) es igual a 100% y Ts <> Td 4.4 - 0.0 2023-10-28 10:49:00
1 2019-07-18 15:00:00 HR (Humedad Relativa) es igual a 100% y Ts <> Td 4.6 - 0.0 2023-10-28 10:49:00
1 2019-07-18 16:00:00 HR (Humedad Relativa) es igual a 100% y Ts <> Td 5.6 - 0.0 2023-10-28 10:49:00
1 2019-07-18 17:00:00 HR (Humedad Relativa) es igual a 100% y Ts <> Td 6.8 - 0.0 2023-10-28 10:49:00
1 2019-07-20 12:00:00 HR (Humedad Relativa) es igual a 100% y Ts <> Td 3.3 - 0.0 2023-10-28 10:49:00
1 2019-07-20 13:00:00 HR (Humedad Relativa) es igual a 100% y Ts <> Td 4.4 - 0.0 2023-10-28 10:49:00
1 2019-07-20 14:00:00 HR (Humedad Relativa) es igual a 100% y Ts <> Td 5.3 - 0.0 2023-10-28 10:49:00
1 2019-07-20 15:00:00 HR (Humedad Relativa) es igual a 100% y Ts <> Td 6.3 - 0.0 2023-10-28 10:49:00
1 2019-07-21 08:00:00 HR (Humedad Relativa) es igual a 100% y Ts <> Td 7.7 - 0.0 2023-10-28 10:49:00
1 2019-07-21 10:00:00 HR (Humedad Relativa) es igual a 100% y Ts <> Td 7.1 - 0.0 2023-10-28 10:49:00
1 2019-07-21 11:00:00 HR (Humedad Relativa) es igual a 100% y Ts <> Td 6.7 - 0.0 2023-10-28 10:49:00
1 2019-07-21 12:00:00 HR (Humedad Relativa) es igual a 100% y Ts <> Td 4.9 - 0.0 2023-10-28 10:49:00
1 2019-07-21 13:00:00 HR (Humedad Relativa) es igual a 100% y Ts <> Td 6.8 - 0.0 2023-10-28 10:49:00
1 2019-07-22 10:00:00 Ts debe ser mayor o igual a Td Ts=-0.6 - Td=0.0 2023-10-28 10:49:00
1 2019-07-22 12:00:00 Ts debe ser mayor o igual a Td Ts=-0.7 - Td=0.0 2023-10-28 10:49:00
1 2019-07-22 12:00:00 HR (Humedad Relativa) es igual a 100% y Ts <> Td -0.7 - 0.0 2023-10-28 10:49:00
1 2019-07-24 03:00:00 Ts debe ser mayor o igual a Td Ts=-0.8 - Td=0.0 2023-10-28 10:49:00
1 2019-07-24 04:00:00 Ts debe ser mayor o igual a Td Ts=-0.9 - Td=0.0 2023-10-28 10:49:00
1 2019-07-24 05:00:00 Ts debe ser mayor o igual a Td Ts=-1.6 - Td=0.0 2023-10-28 10:49:00
1 2019-07-24 06:00:00 Ts debe ser mayor o igual a Td Ts=-1.9 - Td=0.0 2023-10-28 10:49:00
1 2019-07-24 07:00:00 Ts debe ser mayor o igual a Td Ts=-2.2 - Td=0.0 2023-10-28 10:49:00
1 2019-07-24 11:00:00 HR (Humedad Relativa) es igual a 100% y Ts <> Td 0.5 - 0.0 2023-10-28 10:49:00
1 2019-07-24 12:00:00 HR (Humedad Relativa) es igual a 100% y Ts <> Td 0.3 - 0.0 2023-10-28 10:49:00
1 2019-07-24 13:00:00 HR (Humedad Relativa) es igual a 100% y Ts <> Td 0.5 - 0.0 2023-10-28 10:49:00
1 2019-07-24 14:00:00 HR (Humedad Relativa) es igual a 100% y Ts <> Td 1.1 - 0.0 2023-10-28 10:49:00
1 2019-07-24 15:00:00 HR (Humedad Relativa) es igual a 100% y Ts <> Td 1.9 - 0.0 2023-10-28 10:49:00
1 2019-07-24 16:00:00 HR (Humedad Relativa) es igual a 100% y Ts <> Td 3.8 - 0.0 2023-10-28 10:49:00
1 2019-07-27 14:00:00 HR (Humedad Relativa) es igual a 100% y Ts <> Td 7.1 - 0.0 2023-10-28 10:50:00
1 2019-07-29 06:00:00 HR (Humedad Relativa) es igual a 100% y Ts <> Td 10.5 - 0.0 2023-10-28 10:50:00
1 2019-07-29 07:00:00 HR (Humedad Relativa) es igual a 100% y Ts <> Td 10.5 - 0.0 2023-10-28 10:50:00
1 2019-07-29 08:00:00 HR (Humedad Relativa) es igual a 100% y Ts <> Td 10.5 - 0.0 2023-10-28 10:50:00
1 2019-07-29 09:00:00 HR (Humedad Relativa) es igual a 100% y Ts <> Td 10.6 - 0.0 2023-10-28 10:50:00
1 2019-07-29 10:00:00 HR (Humedad Relativa) es igual a 100% y Ts <> Td 10.8 - 0.0 2023-10-28 10:50:00
1 2019-08-03 09:00:00 Ts debe ser mayor o igual a Td Ts=-0.2 - Td=0.0 2023-10-28 10:50:00
1 2019-08-03 10:00:00 Ts debe ser mayor o igual a Td Ts=-0.2 - Td=0.0 2023-10-28 10:50:00
1 2019-08-03 11:00:00 Ts debe ser mayor o igual a Td Ts=-1.0 - Td=0.0 2023-10-28 10:50:00
1 2019-08-03 12:00:00 Ts debe ser mayor o igual a Td Ts=-0.9 - Td=0.0 2023-10-28 10:50:00
1 2019-08-05 11:00:00 Ts debe ser mayor o igual a Td Ts=-0.1 - Td=0.0 2023-10-28 10:50:00
1 2019-08-07 11:00:00 Ts debe ser mayor o igual a Td Ts=-0.1 - Td=0.0 2023-10-28 10:50:00
1 2019-08-07 12:00:00 Ts debe ser mayor o igual a Td Ts=-0.7 - Td=0.0 2023-10-28 10:50:00
1 2019-08-08 07:00:00 Ts debe ser mayor o igual a Td Ts=-0.2 - Td=0.0 2023-10-28 10:50:00
1 2019-08-08 08:00:00 Ts debe ser mayor o igual a Td Ts=-0.7 - Td=0.0 2023-10-28 10:50:00
1 2019-08-08 09:00:00 Ts debe ser mayor o igual a Td Ts=-1.2 - Td=0.0 2023-10-28 10:50:00
1 2019-08-08 10:00:00 Ts debe ser mayor o igual a Td Ts=-0.7 - Td=0.0 2023-10-28 10:50:00
1 2019-08-09 04:00:00 Ts debe ser mayor o igual a Td Ts=-0.3 - Td=0.0 2023-10-28 10:50:00
1 2019-08-09 05:00:00 Ts debe ser mayor o igual a Td Ts=-0.7 - Td=0.0 2023-10-28 10:50:00
1 2019-08-09 06:00:00 Ts debe ser mayor o igual a Td Ts=-0.8 - Td=0.0 2023-10-28 10:50:00
1 2019-08-09 07:00:00 Ts debe ser mayor o igual a Td Ts=-1.4 - Td=0.0 2023-10-28 10:50:00
1 2019-08-09 08:00:00 Ts debe ser mayor o igual a Td Ts=-1.3 - Td=0.0 2023-10-28 10:50:00
1 2019-08-09 09:00:00 Ts debe ser mayor o igual a Td Ts=-1.7 - Td=0.0 2023-10-28 10:50:00
1 2019-08-09 10:00:00 Ts debe ser mayor o igual a Td Ts=-1.9 - Td=0.0 2023-10-28 10:50:00
1 2019-08-09 11:00:00 Ts debe ser mayor o igual a Td Ts=-1.5 - Td=0.0 2023-10-28 10:50:00
1 2019-08-09 12:00:00 Ts debe ser mayor o igual a Td Ts=-1.0 - Td=0.0 2023-10-28 10:50:00
1 2019-08-10 07:00:00 Ts debe ser mayor o igual a Td Ts=-0.9 - Td=0.0 2023-10-28 10:50:00
1 2019-08-10 08:00:00 Ts debe ser mayor o igual a Td Ts=-0.4 - Td=0.0 2023-10-28 10:50:00
1 2019-08-10 10:00:00 Ts debe ser mayor o igual a Td Ts=-0.4 - Td=0.0 2023-10-28 10:50:00
1 2019-08-10 11:00:00 Ts debe ser mayor o igual a Td Ts=-0.9 - Td=0.0 2023-10-28 10:50:00
1 2019-08-10 12:00:00 Ts debe ser mayor o igual a Td Ts=-0.3 - Td=0.0 2023-10-28 10:50:00
1 2019-08-12 09:00:00 Ts debe ser mayor o igual a Td Ts=-0.5 - Td=0.0 2023-10-28 10:50:00
1 2019-08-12 10:00:00 Ts debe ser mayor o igual a Td Ts=-0.7 - Td=0.0 2023-10-28 10:50:00
1 2019-08-12 11:00:00 Ts debe ser mayor o igual a Td Ts=-0.3 - Td=0.0 2023-10-28 10:50:00
1 2019-08-12 12:00:00 Ts debe ser mayor o igual a Td Ts=-0.9 - Td=0.0 2023-10-28 10:50:00
1 2019-08-22 11:00:00 HR (Humedad Relativa) es igual a 100% y Ts <> Td 6.4 - 0.0 2023-10-28 10:50:00
1 2019-08-22 12:00:00 HR (Humedad Relativa) es igual a 100% y Ts <> Td 6.3 - 0.0 2023-10-28 10:50:00
1 2019-08-22 13:00:00 HR (Humedad Relativa) es igual a 100% y Ts <> Td 6.4 - 0.0 2023-10-28 10:50:00
1 2019-08-22 14:00:00 HR (Humedad Relativa) es igual a 100% y Ts <> Td 6.4 - 0.0 2023-10-28 10:50:00
1 2019-08-22 15:00:00 HR (Humedad Relativa) es igual a 100% y Ts <> Td 7.7 - 0.0 2023-10-28 10:50:00
1 2019-08-27 09:00:00 HR (Humedad Relativa) es igual a 100% y Ts <> Td 11.0 - 0.0 2023-10-28 10:50:00
1 2019-08-27 10:00:00 HR (Humedad Relativa) es igual a 100% y Ts <> Td 10.8 - 0.0 2023-10-28 10:50:00
1 2019-08-27 11:00:00 HR (Humedad Relativa) es igual a 100% y Ts <> Td 10.5 - 0.0 2023-10-28 10:50:00
1 2019-08-27 12:00:00 HR (Humedad Relativa) es igual a 100% y Ts <> Td 10.5 - 0.0 2023-10-28 10:50:00
1 2019-08-27 13:00:00 HR (Humedad Relativa) es igual a 100% y Ts <> Td 10.8 - 0.0 2023-10-28 10:50:00
1 2019-08-27 14:00:00 HR (Humedad Relativa) es igual a 100% y Ts <> Td 11.2 - 0.0 2023-10-28 10:50:00
1 2019-08-27 15:00:00 HR (Humedad Relativa) es igual a 100% y Ts <> Td 11.5 - 0.0 2023-10-28 10:50:00
1 2019-08-27 16:00:00 HR (Humedad Relativa) es igual a 100% y Ts <> Td 13.1 - 0.0 2023-10-28 10:50:00
1 2019-08-28 08:00:00 HR (Humedad Relativa) es igual a 100% y Ts <> Td 10.5 - 0.0 2023-10-28 10:50:00
1 2019-08-28 09:00:00 HR (Humedad Relativa) es igual a 100% y Ts <> Td 9.6 - 0.0 2023-10-28 10:50:00
1 2019-08-28 10:00:00 HR (Humedad Relativa) es igual a 100% y Ts <> Td 10.0 - 0.0 2023-10-28 10:50:00
1 2019-08-28 11:00:00 HR (Humedad Relativa) es igual a 100% y Ts <> Td 10.5 - 0.0 2023-10-28 10:50:00
1 2019-08-28 12:00:00 HR (Humedad Relativa) es igual a 100% y Ts <> Td 11.3 - 0.0 2023-10-28 10:50:00
1 2019-08-28 13:00:00 HR (Humedad Relativa) es igual a 100% y Ts <> Td 12.3 - 0.0 2023-10-28 10:50:00
1 2019-08-28 14:00:00 HR (Humedad Relativa) es igual a 100% y Ts <> Td 12.4 - 0.0 2023-10-28 10:50:00
1 2019-08-28 15:00:00 HR (Humedad Relativa) es igual a 100% y Ts <> Td 12.5 - 0.0 2023-10-28 10:50:00
1 2019-08-28 16:00:00 HR (Humedad Relativa) es igual a 100% y Ts <> Td 12.8 - 0.0 2023-10-28 10:50:00
1 2019-08-28 17:00:00 HR (Humedad Relativa) es igual a 100% y Ts <> Td 13.3 - 0.0 2023-10-28 10:50:00
1 2019-08-28 18:00:00 HR (Humedad Relativa) es igual a 100% y Ts <> Td 14.3 - 0.0 2023-10-28 10:50:00
1 2019-09-02 11:00:00 Ts debe ser mayor o igual a Td Ts=-0.4 - Td=0.0 2023-10-28 10:50:00
1 2019-09-03 08:00:00 Ts debe ser mayor o igual a Td Ts=-0.5 - Td=0.0 2023-10-28 10:50:00
1 2019-09-03 09:00:00 Ts debe ser mayor o igual a Td Ts=-0.9 - Td=0.0 2023-10-28 10:50:00
1 2019-09-03 10:00:00 Ts debe ser mayor o igual a Td Ts=-1.3 - Td=0.0 2023-10-28 10:50:00
1 2019-09-03 11:00:00 Ts debe ser mayor o igual a Td Ts=-1.6 - Td=0.0 2023-10-28 10:50:00
1 2019-09-07 12:00:00 HR (Humedad Relativa) es igual a 100% y Ts <> Td 8.8 - 0.0 2023-10-28 10:51:00
1 2019-09-07 13:00:00 HR (Humedad Relativa) es igual a 100% y Ts <> Td 9.1 - 0.0 2023-10-28 10:51:00
1 2019-09-07 14:00:00 HR (Humedad Relativa) es igual a 100% y Ts <> Td 9.3 - 0.0 2023-10-28 10:51:00
1 2019-09-07 15:00:00 HR (Humedad Relativa) es igual a 100% y Ts <> Td 9.3 - 0.0 2023-10-28 10:51:00
1 2019-09-08 11:00:00 HR (Humedad Relativa) es igual a 100% y Ts <> Td 6.1 - 0.0 2023-10-28 10:51:00
1 2019-09-08 12:00:00 HR (Humedad Relativa) es igual a 100% y Ts <> Td 6.0 - 0.0 2023-10-28 10:51:00
1 2019-09-08 13:00:00 HR (Humedad Relativa) es igual a 100% y Ts <> Td 7.1 - 0.0 2023-10-28 10:51:00
1 2019-09-08 14:00:00 HR (Humedad Relativa) es igual a 100% y Ts <> Td 8.9 - 0.0 2023-10-28 10:51:00
Errores del Nivel 648
Nivel Fecha del Dato Descripción Información Error Fecha Ingreso
2 2002-06-30 00:00:00 Temperatura 10.9 del 29-06-2002 18:00, Mayor que la Máxima 10.8 30-06-2002 00:00 10.9 -- 10.8 2023-12-30 22:09:00
2 2002-07-27 00:00:00 Temperatura 12.4 del 26-07-2002 18:00, Mayor que la Máxima 12.0 27-07-2002 00:00 12.4 -- 12.0 2023-12-30 22:09:00
2 2002-08-06 00:00:00 Temperatura 10.8 del 06-08-2002 00:00, Mayor que la Máxima 9.6 06-08-2002 00:00 10.8 -- 9.6 2023-12-30 22:10:00
2 2002-09-14 00:00:00 Temperatura 17.4 del 13-09-2002 18:00, Mayor que la Máxima 14.4 14-09-2002 00:00 17.4 -- 14.4 2023-12-30 22:10:00
2 2002-09-18 00:00:00 Temperatura 15.0 del 17-09-2002 18:00, Mayor que la Máxima 14.3 18-09-2002 00:00 15.0 -- 14.3 2023-12-30 22:10:00
2 2002-09-21 00:00:00 Temperatura 16.0 del 20-09-2002 18:00, Mayor que la Máxima 15.0 21-09-2002 00:00 16.0 -- 15.0 2023-12-30 22:10:00
2 2002-11-17 00:00:00 Temperatura 22.6 del 16-11-2002 18:00, Mayor que la Máxima 17.0 17-11-2002 00:00 22.6 -- 17.0 2023-12-30 22:10:00
2 2002-12-10 00:00:00 Temperatura 24.2 del 10-12-2002 00:00, Mayor que la Máxima 23.6 10-12-2002 00:00 24.2 -- 23.6 2023-12-30 22:10:00
2 2003-03-24 00:00:00 Temperatura 24.8 del 23-03-2003 18:00, Mayor que la Máxima 23.8 24-03-2003 00:00 24.8 -- 23.8 2023-12-30 22:10:00
2 2003-03-30 00:00:00 Temperatura 22.0 del 29-03-2003 18:00, Mayor que la Máxima 18.5 30-03-2003 00:00 22.0 -- 18.5 2023-12-30 22:10:00
2 2003-03-31 00:00:00 Temperatura 21.2 del 30-03-2003 18:00, Mayor que la Máxima 17.0 31-03-2003 00:00 21.2 -- 17.0 2023-12-30 22:10:00
2 2003-05-11 00:00:00 Temperatura 16.8 del 10-05-2003 18:00, Mayor que la Máxima 16.2 11-05-2003 00:00 16.8 -- 16.2 2023-12-30 02:28:00
2 2003-05-18 00:00:00 Temperatura 14.4 del 17-05-2003 18:00, Mayor que la Máxima 11.0 18-05-2003 00:00 14.4 -- 11.0 2023-12-30 02:29:00
2 2003-05-19 00:00:00 Temperatura 12.2 del 18-05-2003 18:00, Mayor que la Máxima 11.2 19-05-2003 00:00 12.2 -- 11.2 2023-12-30 02:29:00
2 2003-06-21 00:00:00 Temperatura 16.4 del 20-06-2003 18:00, Mayor que la Máxima 16.2 21-06-2003 00:00 16.4 -- 16.2 2023-12-30 02:29:00
2 2003-09-25 00:00:00 Temperatura 12.4 del 24-09-2003 18:00, Mayor que la Máxima 10.2 25-09-2003 00:00 12.4 -- 10.2 2023-12-30 02:29:00
2 2003-11-18 00:00:00 Temperatura 16.4 del 18-11-2003 00:00, Mayor que la Máxima 16.0 18-11-2003 00:00 16.4 -- 16.0 2023-12-30 02:29:00
2 2003-12-01 00:00:00 Temperatura 29.0 del 01-12-2003 00:00, Mayor que la Máxima 27.0 01-12-2003 00:00 29.0 -- 27.0 2023-12-30 02:29:00
2 2003-12-17 00:00:00 Temperatura 29.8 del 16-12-2003 18:00, Mayor que la Máxima 28.0 17-12-2003 00:00 29.8 -- 28.0 2023-12-30 02:29:00
2 2004-01-13 00:00:00 Temperatura 28.2 del 12-01-2004 18:00, Mayor que la Máxima 28.0 13-01-2004 00:00 28.2 -- 28.0 2023-12-30 02:29:00
2 2004-02-16 00:00:00 Temperatura 27.0 del 15-02-2004 18:00, Mayor que la Máxima 26.0 16-02-2004 00:00 27.0 -- 26.0 2023-12-30 02:29:00
2 2004-03-05 00:00:00 Temperatura 27.0 del 04-03-2004 18:00, Mayor que la Máxima 20.0 05-03-2004 00:00 27.0 -- 20.0 2023-12-30 02:29:00
2 2004-03-29 00:00:00 Temperatura 17.0 del 29-03-2004 00:00, Mayor que la Máxima 11.0 29-03-2004 00:00 17.0 -- 11.0 2023-12-30 02:29:00
2 2004-03-30 00:00:00 Temperatura 23.4 del 29-03-2004 18:00, Mayor que la Máxima 23.0 30-03-2004 00:00 23.4 -- 23.0 2023-12-30 02:29:00
2 2004-03-31 00:00:00 Temperatura 25.2 del 30-03-2004 18:00, Mayor que la Máxima 25.0 31-03-2004 00:00 25.2 -- 25.0 2023-12-30 02:29:00
2 2004-04-06 00:00:00 Temperatura 20.6 del 05-04-2004 18:00, Mayor que la Máxima 20.0 06-04-2004 00:00 20.6 -- 20.0 2023-12-30 02:29:00
2 2004-04-08 00:00:00 Temperatura 23.4 del 07-04-2004 18:00, Mayor que la Máxima 23.0 08-04-2004 00:00 23.4 -- 23.0 2023-12-30 02:29:00
2 2004-04-10 00:00:00 Temperatura 19.4 del 09-04-2004 18:00, Mayor que la Máxima 19.0 10-04-2004 00:00 19.4 -- 19.0 2023-12-30 02:29:00
2 2004-04-12 00:00:00 Temperatura 23.8 del 11-04-2004 18:00, Mayor que la Máxima 23.0 12-04-2004 00:00 23.8 -- 23.0 2023-12-30 02:29:00
2 2004-05-17 00:00:00 Temperatura 16.8 del 17-05-2004 00:00, Mayor que la Máxima 15.6 17-05-2004 00:00 16.8 -- 15.6 2023-12-31 02:46:00
2 2004-06-14 00:00:00 Temperatura 7.8 del 14-06-2004 00:00, Mayor que la Máxima 7.0 14-06-2004 00:00 7.8 -- 7.0 2023-12-31 02:46:00
2 2004-06-25 00:00:00 Temperatura 10.4 del 24-06-2004 18:00, Mayor que la Máxima 10.0 25-06-2004 00:00 10.4 -- 10.0 2023-12-31 02:46:00
2 2004-10-22 00:00:00 Temperatura 17.1 del 21-10-2004 18:00, Mayor que la Máxima 10.4 22-10-2004 00:00 17.1 -- 10.4 2023-12-31 02:46:00
2 2004-11-11 00:00:00 Temperatura 22.8 del 11-11-2004 00:00, Mayor que la Máxima 18.0 11-11-2004 00:00 22.8 -- 18.0 2023-12-31 02:46:00
2 2004-11-14 00:00:00 Temperatura 18.8 del 13-11-2004 18:00, Mayor que la Máxima 15.0 14-11-2004 00:00 18.8 -- 15.0 2023-12-31 02:46:00
2 2004-11-15 00:00:00 Temperatura 18.2 del 14-11-2004 18:00, Mayor que la Máxima 14.0 15-11-2004 00:00 18.2 -- 14.0 2023-12-31 02:46:00
2 2004-12-19 00:00:00 Temperatura 24.4 del 18-12-2004 18:00, Mayor que la Máxima 24.0 19-12-2004 00:00 24.4 -- 24.0 2023-12-31 02:46:00
2 2005-03-17 00:00:00 Temperatura 23.6 del 16-03-2005 18:00, Mayor que la Máxima 19.0 17-03-2005 00:00 23.6 -- 19.0 2023-12-31 02:46:00
2 2009-01-07 00:00:00 Temperatura 28.0 del 07-01-2009 00:00, Mayor que la Máxima 26.4 07-01-2009 00:00 28.0 -- 26.4 2023-12-31 01:09:00
2 2009-02-21 00:00:00 Temperatura 25.4 del 21-02-2009 00:00, Mayor que la Máxima 25.0 21-02-2009 00:00 25.4 -- 25.0 2023-12-31 01:09:00
2 2009-02-27 00:00:00 Temperatura 30.1 del 26-02-2009 22:00, Mayor que la Máxima 29.8 27-02-2009 00:00 30.1 -- 29.8 2023-12-31 01:09:00
2 2009-03-01 00:00:00 Temperatura 26.0 del 28-02-2009 21:00, Mayor que la Máxima 25.6 01-03-2009 00:00 26.0 -- 25.6 2023-12-31 01:09:00
2 2010-07-02 00:00:00 Temperatura 7.8 del 02-07-2010 00:00, Mayor que la Máxima 7.7 02-07-2010 00:00 7.8 -- 7.7 2023-11-13 03:29:00
2 2012-01-22 00:00:00 Temperatura 22.8 del 22-01-2012 00:00, Mayor que la Máxima 21.5 22-01-2012 00:00 22.8 -- 21.5 2023-11-13 02:59:00
2 2002-05-08 12:00:00 Temperatura 8.4 del 08-05-2002 12:00, Menor que la Mínima 8.8 08-05-2002 12:00 8.4 -- 8.8 2023-12-30 22:09:00
2 2002-06-10 12:00:00 Temperatura -3.5 del 10-06-2002 12:00, Menor que la Mínima -3.0 10-06-2002 12:00 -3.5 -- -3.0 2023-12-30 22:09:00
2 2002-07-01 12:00:00 Temperatura -0.6 del 01-07-2002 12:00, Menor que la Mínima 1.0 01-07-2002 12:00 -0.6 -- 1.0 2023-12-30 22:09:00
2 2002-07-10 12:00:00 Temperatura 2.0 del 10-07-2002 12:00, Menor que la Mínima 3.0 10-07-2002 12:00 2.0 -- 3.0 2023-12-30 22:09:00
2 2002-08-08 12:00:00 Temperatura 7.8 del 08-08-2002 12:00, Menor que la Mínima 8.0 08-08-2002 12:00 7.8 -- 8.0 2023-12-30 22:10:00
2 2002-09-26 12:00:00 Temperatura 5.2 del 26-09-2002 12:00, Menor que la Mínima 9.0 26-09-2002 12:00 5.2 -- 9.0 2023-12-30 22:10:00
2 2003-02-07 12:00:00 Temperatura 11.4 del 07-02-2003 12:00, Menor que la Mínima 11.6 07-02-2003 12:00 11.4 -- 11.6 2023-12-30 22:10:00
2 2003-04-28 12:00:00 Temperatura 0.4 del 28-04-2003 12:00, Menor que la Mínima 1.0 28-04-2003 12:00 0.4 -- 1.0 2023-12-30 22:11:00
2 2003-05-07 12:00:00 Temperatura 4.2 del 07-05-2003 12:00, Menor que la Mínima 4.5 07-05-2003 12:00 4.2 -- 4.5 2023-12-30 02:28:00
2 2003-07-29 12:00:00 Temperatura 1.4 del 29-07-2003 12:00, Menor que la Mínima 2.2 29-07-2003 12:00 1.4 -- 2.2 2023-12-30 02:29:00
2 2003-07-30 12:00:00 Temperatura 0.0 del 30-07-2003 12:00, Menor que la Mínima 3.0 30-07-2003 12:00 0.0 -- 3.0 2023-12-30 02:29:00
2 2003-08-12 12:00:00 Temperatura 7.4 del 12-08-2003 12:00, Menor que la Mínima 8.0 12-08-2003 12:00 7.4 -- 8.0 2023-12-30 02:29:00
2 2003-08-21 12:00:00 Temperatura 1.4 del 21-08-2003 12:00, Menor que la Mínima 2.0 21-08-2003 12:00 1.4 -- 2.0 2023-12-30 02:29:00
2 2003-09-11 12:00:00 Temperatura 7.2 del 11-09-2003 12:00, Menor que la Mínima 8.0 11-09-2003 12:00 7.2 -- 8.0 2023-12-30 02:29:00
2 2003-11-12 12:00:00 Temperatura 11.4 del 12-11-2003 12:00, Menor que la Mínima 14.0 12-11-2003 12:00 11.4 -- 14.0 2023-12-30 02:29:00
2 2004-05-04 12:00:00 Temperatura 2.8 del 04-05-2004 12:00, Menor que la Mínima 3.0 04-05-2004 12:00 2.8 -- 3.0 2023-12-31 02:46:00
2 2004-08-04 12:00:00 Temperatura 7.2 del 04-08-2004 12:00, Menor que la Mínima 7.4 04-08-2004 12:00 7.2 -- 7.4 2023-12-31 02:46:00
2 2004-08-09 12:00:00 Temperatura 8.6 del 09-08-2004 12:00, Menor que la Mínima 9.2 09-08-2004 12:00 8.6 -- 9.2 2023-12-31 02:46:00
2 2004-08-13 12:00:00 Temperatura 3.6 del 13-08-2004 12:00, Menor que la Mínima 3.8 13-08-2004 12:00 3.6 -- 3.8 2023-12-31 02:46:00
2 2009-01-24 12:00:00 Temperatura 11.2 del 24-01-2009 12:00, Menor que la Mínima 12.4 24-01-2009 12:00 11.2 -- 12.4 2023-12-31 01:09:00
2 2009-01-25 12:00:00 Temperatura 7.2 del 25-01-2009 12:00, Menor que la Mínima 8.4 25-01-2009 12:00 7.2 -- 8.4 2023-12-31 01:09:00
Errores del Nivel 65
Informe generado el 23-02-2024 09:33
Requerimiento: RE6001